Home > Products > Valid Products > MTR

000
SAUS41 KLWX 042306
MTRNAK
SPECI KNAK 042305Z AUTO 04006KT 2SM BR OVC013 12/11 A2968 RMK AO2
T01220111





000
SAUS41 KLWX 042300
MTRRYT
METAR KRYT 042253Z AUTO 00000KT 5SM BR OVC010 12/10 A2966 RMK AO2
CIG 007V013 SLP043 T01220100 $





000
SAUS41 KLWX 042258 COR
MTRDMH
METAR KDMH 042254Z AUTO 12/11 A2967 RMK AO1 SLP046 T01220111





000
SAUS41 KLWX 042255
MTRNAK
METAR KNAK 042254Z AUTO 03004KT 4SM BR OVC013 13/11 A2967 RMK AO2
SLP049 T01280111





000
SAUS41 KLWX 042230
MTRNAK
SPECI KNAK 042229Z AUTO 03005KT 9SM OVC014 13/11 A2966 RMK AO2
T01280111





000
SAUS41 KLWX 042230
MTRNAK
SPECI KNAK 042229Z AUTO 03005KT 9SM OVC014 13/11 A2966 RMK AO2
T01280111





000
SAUS41 KLWX 042201 COR
MTRRYT
METAR KRYT 042153Z AUTO 04004KT 5SM HZ OVC010 13/10 A2964 RMK AO2
SLP037 T01280100 $





000
SAUS41 KLWX 042200
MTRRYT
METAR KRYT 042153Z AUTO 04004KT 5SM HZ OVC010 13/10 A2964 RMK AO2
SLP037 T01280100 $





000
SAUS41 KLWX 042158 COR
MTRDMH
METAR KDMH 042154Z AUTO 13/11 A2967 RMK AO1 SLP045 T01330106





000
SAUS41 KLWX 042158 COR
MTRDMH
METAR KDMH 042154Z AUTO 13/11 A2967 RMK AO1 SLP045 T01330106





000
SAUS41 KLWX 042155
MTRNAK
METAR KNAK 042154Z AUTO 07006KT 10SM OVC016 13/11 A2966 RMK AO2
SLP044 T01330106 $





000
SAUS41 KLWX 042111
MTRNAK
SPECI KNAK 042110Z AUTO 04007KT 360V060 10SM OVC014 13/11 A2966 RMK
AO2 T01330111 $





000
SAUS41 KLWX 042111
MTRNAK
SPECI KNAK 042110Z AUTO 04007KT 360V060 10SM OVC014 13/11 A2966 RMK
AO2 T01330111 $





000
SAUS41 KLWX 042101 COR
MTRRYT
METAR KRYT 042053Z AUTO 03004KT 8SM OVC010 13/10 A2964 RMK AO2
SLP036 T01280100 56012 $





000
SAUS41 KLWX 042100 COR
MTRRYT
METAR KRYT 042053Z AUTO 03004KT 8SM OVC010 13/10 A2964 RMK AO2
SLP036 T01280100 56012 $





000
SAUS41 KLWX 042100 COR
MTRRYT
METAR KRYT 042053Z AUTO 03004KT 8SM OVC010 13/10 A2964 RMK AO2
SLP036 T01280100 56012 $





000
SAUS41 KLWX 042100
MTRRYT
METAR KRYT 042053Z AUTO 03004KT 8SM OVC010 13/10 A2964 RMK AO2
SLP036 T01280100 56012 $





000
SAUS41 KLWX 042057 COR
MTRDMH
METAR KDMH 042054Z AUTO 13/10 A2966 RMK AO1 SLP045 T01330100 58007





000
SAUS41 KLWX 042057 COR
MTRDMH
METAR KDMH 042054Z AUTO 13/10 A2966 RMK AO1 SLP045 T01330100 58007





000
SAUS41 KLWX 042055
MTRNAK
METAR KNAK 042054Z AUTO 05007KT 10SM OVC016 13/11 A2966 RMK AO2
SLP045 T01330111 56012 $





000
SAUS41 KLWX 042055
MTRNAK
METAR KNAK 042054Z AUTO 05007KT 10SM OVC016 13/11 A2966 RMK AO2
SLP045 T01330111 56012 $





000
SAUS41 KLWX 042034
MTRNAK
SPECI KNAK 042033Z AUTO 05006KT 10SM OVC018 13/11 A2965 RMK AO2
T01330106





000
SAUS41 KLWX 042023 COR
MTRRYT
SPECI KRYT 042015Z AUTO 04005KT 10SM OVC010 13/10 A2963 RMK AO2 CIG
008V012 $





000
SAUS41 KLWX 042022 COR
MTRRYT
SPECI KRYT 042015Z AUTO 04005KT 10SM OVC010 13/10 A2963 RMK AO2 CIG
008V012 $





000
SAUS41 KLWX 042022 COR
MTRRYT
SPECI KRYT 042015Z AUTO 04005KT 10SM OVC010 13/10 A2963 RMK AO2 CIG
008V012 $





000
SAUS41 KLWX 042022
MTRRYT
SPECI KRYT 042015Z AUTO 04005KT 10SM OVC010 13/10 A2963 RMK AO2 CIG
008V012 $





000
SAUS41 KLWX 042022
MTRRYT
SPECI KRYT 042015Z AUTO 04005KT 10SM OVC010 13/10 A2963 RMK AO2 CIG
008V012 $





000
SAUS41 KLWX 042001 COR
MTRRYT
METAR KRYT 041953Z AUTO VRB03KT 10SM OVC008 13/10 A2964 RMK AO2
SLP037 T01280100 $





000
SAUS41 KLWX 042000
MTRRYT
METAR KRYT 041953Z AUTO VRB03KT 10SM OVC008 13/10 A2964 RMK AO2
SLP037 T01280100 $





000
SAUS41 KLWX 041958 COR
MTRDMH
METAR KDMH 041954Z AUTO 13/10 A2968 RMK AO1 SLP048 T01330100





000
SAUS41 KLWX 041956
MTRNAK
METAR KNAK 041954Z AUTO 05006KT 10SM OVC012 13/11 A2966 RMK AO2
SLP047 T01280111





000
SAUS41 KLWX 041858 COR
MTRDMH
METAR KDMH 041854Z AUTO 13/10 A2969 RMK AO1 SLP055 T01330100





000
SAUS41 KLWX 041858 COR
MTRDMH
METAR KDMH 041854Z AUTO 13/10 A2969 RMK AO1 SLP055 T01330100





000
SAUS41 KLWX 041855
MTRNAK
METAR KNAK 041854Z AUTO 02006KT 8SM OVC012 13/11 A2968 RMK AO2
SLP052 T01280111





000
SAUS41 KLWX 041832
MTRNAK
SPECI KNAK 041831Z AUTO 03004KT 3SM BR OVC014 13/11 A2968 RMK AO2
T01280111





000
SAUS41 KLWX 041832
MTRNAK
SPECI KNAK 041831Z AUTO 03004KT 3SM BR OVC014 13/11 A2968 RMK AO2
T01280111





000
SAUS41 KLWX 041804
MTRNAK
SPECI KNAK 041803Z AUTO 03004KT 3SM BR FEW010 OVC015 13/11 A2969 RMK
AO2 T01280111





000
SAUS41 KLWX 041804
MTRNAK
SPECI KNAK 041803Z AUTO 03004KT 3SM BR FEW010 OVC015 13/11 A2969 RMK
AO2 T01280111





000
SAUS41 KLWX 041801 COR
MTRRYT
METAR KRYT 041753Z AUTO 00000KT 7SM OVC006 12/10 A2967 RMK AO2
SLP048 60002 T01220100 10128 20111 55007 $





000
SAUS41 KLWX 041801 COR
MTRRYT
METAR KRYT 041753Z AUTO 00000KT 7SM OVC006 12/10 A2967 RMK AO2
SLP048 60002 T01220100 10128 20111 55007 $





000
SAUS41 KLWX 041758 COR
MTRDMH
METAR KDMH 041754Z AUTO 13/10 A2968 RMK AO1 SLP051 T01330100 10133
20117 58021





000
SAUS41 KLWX 041758 COR
MTRDMH
METAR KDMH 041754Z AUTO 13/10 A2968 RMK AO1 SLP051 T01330100 10133
20117 58021





000
SAUS41 KLWX 041756
MTRNAK
METAR KNAK 041754Z AUTO 00000KT 2 1/2SM BR SCT010 OVC014 13/11 A2969
RMK AO2 SLP056 T01280111 10128 20117 56015





000
SAUS41 KLWX 041756
MTRNAK
METAR KNAK 041754Z AUTO 00000KT 2 1/2SM BR SCT010 OVC014 13/11 A2969
RMK AO2 SLP056 T01280111 10128 20117 56015





000
SAUS41 KLWX 041745
MTRNAK
SPECI KNAK 041743Z AUTO 03004KT 2 1/2SM BR OVC014 12/11 A2969 RMK
AO2 T01220111





000
SAUS41 KLWX 041745
MTRNAK
SPECI KNAK 041743Z AUTO 03004KT 2 1/2SM BR OVC014 12/11 A2969 RMK
AO2 T01220111





000
SAUS41 KLWX 041738
MTRRYT
SPECI KRYT 041731Z AUTO 04005KT 3SM BR OVC008 12/11 A2968 RMK AO2
CIG 006V011 $





000
SAUS41 KLWX 041738
MTRRYT
SPECI KRYT 041731Z AUTO 04005KT 3SM BR OVC008 12/11 A2968 RMK AO2
CIG 006V011 $





000
SAUS41 KLWX 041702 COR
MTRRYT
METAR KRYT 041653Z AUTO 00000KT 10SM OVC010 12/10 A2969 RMK AO2
SLP053 T01220100 $





000
SAUS41 KLWX 041702 COR
MTRRYT
METAR KRYT 041653Z AUTO 00000KT 10SM OVC010 12/10 A2969 RMK AO2
SLP053 T01220100 $





000
SAUS41 KLWX 041658 COR
MTRDMH
METAR KDMH 041654Z AUTO 13/10 A2973 RMK AO1 SLP068 T01330100





000
SAUS41 KLWX 041658 COR
MTRDMH
METAR KDMH 041654Z AUTO 13/10 A2973 RMK AO1 SLP068 T01330100





000
SAUS41 KLWX 041655
MTRNAK
METAR KNAK 041654Z AUTO 06006KT 10SM OVC013 12/11 A2971 RMK AO2
SLP062 T01220106





000
SAUS41 KLWX 041652
MTRRYT
SPECI KRYT 041646Z AUTO 00000KT 10SM OVC010 12/11 A2969 RMK AO2 $





000
SAUS41 KLWX 041558 COR
MTRRYT
METAR KRYT 041553Z AUTO 00000KT 3SM BR OVC006 12/10 A2970 RMK AO2
SLP055 T01170100 $





000
SAUS41 KLWX 041558 COR
MTRDMH
METAR KDMH 041554Z AUTO 13/10 A2973 RMK AO1 SLP068 T01280100





000
SAUS41 KLWX 041557
MTRRYT
METAR KRYT 041553Z AUTO 00000KT 3SM BR OVC006 12/10 A2970 RMK AO2
SLP055 T01170100 $





000
SAUS41 KLWX 041557
MTRRYT
METAR KRYT 041553Z AUTO 00000KT 3SM BR OVC006 12/10 A2970 RMK AO2
SLP055 T01170100 $





000
SAUS41 KLWX 041555
MTRNAK
METAR KNAK 041554Z AUTO 08004KT 10SM OVC013 12/10 A2971 RMK AO2
SLP063 T01220100





000
SAUS41 KLWX 041555
MTRNAK
METAR KNAK 041554Z AUTO 08004KT 10SM OVC013 12/10 A2971 RMK AO2
SLP063 T01220100





000
SAUS41 KLWX 041550 COR
MTRRYT
SPECI KRYT 041548Z AUTO 00000KT 2 1/2SM BR OVC006 12/10 A2970 RMK
AO2 CIG 005V010 $





000
SAUS41 KLWX 041540 COR
MTRRYT
SPECI KRYT 041532Z AUTO 07004KT 5SM BR OVC006 12/10 A2971 RMK AO2
CIG 005V011 $





000
SAUS41 KLWX 041540 COR
MTRRYT
SPECI KRYT 041532Z AUTO 07004KT 5SM BR OVC006 12/10 A2971 RMK AO2
CIG 005V011 $





000
SAUS41 KLWX 041539
MTRRYT
SPECI KRYT 041532Z AUTO 07004KT 5SM BR OVC006 12/10 A2971 RMK AO2
CIG 005V011 $





000
SAUS41 KLWX 041539
MTRRYT
SPECI KRYT 041532Z AUTO 07004KT 5SM BR OVC006 12/10 A2971 RMK AO2
CIG 005V011 $





000
SAUS41 KLWX 041514 COR
MTRRYT
SPECI KRYT 041506Z AUTO VRB03KT 2 1/2SM BR OVC006 12/10 A2971 RMK
AO2 $





000
SAUS41 KLWX 041501 COR
MTRRYT
METAR KRYT 041453Z AUTO 00000KT 4SM BR OVC006 12/09 A2971 RMK AO2
SLP061 60002 T01170094 55003 $





000
SAUS41 KLWX 041500
MTRRYT
METAR KRYT 041453Z AUTO 00000KT 4SM BR OVC006 12/09 A2971 RMK AO2
SLP061 60002 T01170094 55003 $





000
SAUS41 KLWX 041500
MTRRYT
METAR KRYT 041453Z AUTO 00000KT 4SM BR OVC006 12/09 A2971 RMK AO2
SLP061 60002 T01170094 55003 $





000
SAUS41 KLWX 041458 COR
MTRDMH
METAR KDMH 041454Z AUTO 12/09 A2975 RMK AO1 SLP072 T01220094 56003





000
SAUS41 KLWX 041458 COR
MTRDMH
METAR KDMH 041454Z AUTO 12/09 A2975 RMK AO1 SLP072 T01220094 56003





000
SAUS41 KLWX 041455
MTRNAK
METAR KNAK 041454Z AUTO 11003KT 10SM OVC012 12/10 A2974 RMK AO2
SLP071 T01170100 50000





000
SAUS41 KLWX 041426
MTRRYT
SPECI KRYT 041419Z AUTO VRB03KT 6SM BR OVC006 11/10 A2971 RMK AO2 $





000
SAUS41 KLWX 041410 COR
MTRRYT
SPECI KRYT 041402Z AUTO VRB03KT 4SM BR OVC004 11/10 A2971 RMK AO2
CIG 003V006 $





000
SAUS41 KLWX 041409 COR
MTRRYT
SPECI KRYT 041402Z AUTO VRB03KT 4SM BR OVC004 11/10 A2971 RMK AO2
CIG 003V006 $





000
SAUS41 KLWX 041409
MTRRYT
SPECI KRYT 041402Z AUTO VRB03KT 4SM BR OVC004 11/10 A2971 RMK AO2
CIG 003V006 $





000
SAUS41 KLWX 041401 COR
MTRRYT
METAR KRYT 041353Z AUTO VRB03KT 2 1/2SM BR OVC004 11/09 A2971 RMK
AO2 RAE01B34E43 CIG 002V006 SLP059 P0001 T01110094 $





000
SAUS41 KLWX 041401 COR
MTRRYT
METAR KRYT 041353Z AUTO VRB03KT 2 1/2SM BR OVC004 11/09 A2971 RMK
AO2 RAE01B34E43 CIG 002V006 SLP059 P0001 T01110094 $





000
SAUS41 KLWX 041400
MTRRYT
METAR KRYT 041353Z AUTO VRB03KT 2 1/2SM BR OVC004 11/09 A2971 RMK
AO2 RAE01B34E43 CIG 002V006 SLP059 P0001 T01110094 $





000
SAUS41 KLWX 041400
MTRRYT
METAR KRYT 041353Z AUTO VRB03KT 2 1/2SM BR OVC004 11/09 A2971 RMK
AO2 RAE01B34E43 CIG 002V006 SLP059 P0001 T01110094 $





000
SAUS41 KLWX 041357 COR
MTRDMH
METAR KDMH 041354Z AUTO 12/09 A2975 RMK AO1 SLP072 T01220094





000
SAUS41 KLWX 041357 COR
MTRDMH
METAR KDMH 041354Z AUTO 12/09 A2975 RMK AO1 SLP072 T01220094





000
SAUS41 KLWX 041356
MTRNAK
METAR KNAK 041354Z AUTO 07006KT 10SM OVC012 12/10 A2974 RMK AO2
SLP072 T01170100





000
SAUS41 KLWX 041352 COR
MTRRYT
SPECI KRYT 041344Z AUTO 00000KT 2 1/2SM BR OVC004 11/10 A2971 RMK
AO2 RAE01B34E43 P0001 $





000
SAUS41 KLWX 041351
MTRRYT
SPECI KRYT 041344Z AUTO 00000KT 2 1/2SM BR OVC004 11/10 A2971 RMK
AO2 RAE01B34E43 P0001 $





000
SAUS41 KLWX 041341 COR
MTRRYT
SPECI KRYT 041333Z AUTO 05003KT 1 3/4SM BR OVC004 11/10 A2971 RMK
AO2 RAE01 P0000 $





000
SAUS41 KLWX 041341 COR
MTRRYT
SPECI KRYT 041333Z AUTO 05003KT 1 3/4SM BR OVC004 11/10 A2971 RMK
AO2 RAE01 P0000 $





000
SAUS41 KLWX 041340 COR
MTRRYT
SPECI KRYT 041333Z AUTO 05003KT 1 3/4SM BR OVC004 11/10 A2971 RMK
AO2 RAE01 P0000 $





000
SAUS41 KLWX 041340 COR
MTRRYT
SPECI KRYT 041333Z AUTO 05003KT 1 3/4SM BR OVC004 11/10 A2971 RMK
AO2 RAE01 P0000 $





000
SAUS41 KLWX 041326 COR
MTRRYT
SPECI KRYT 041323Z AUTO 00000KT 3SM BR OVC004 11/10 A2971 RMK AO2
RAE01 P0000 $





000
SAUS41 KLWX 041325 COR
MTRRYT
SPECI KRYT 041323Z AUTO 00000KT 3SM BR OVC004 11/10 A2971 RMK AO2
RAE01 P0000 $





000
SAUS41 KLWX 041324
MTRRYT
SPECI KRYT 041323Z AUTO 00000KT 3SM BR OVC004 11/10 A2971 RMK AO2
RAE01 P0000 $





000
SAUS41 KLWX 041301 COR
MTRRYT
METAR KRYT 041253Z AUTO 00000KT 4SM -RA BR OVC004 12/10 A2971 RMK
AO2 RAB39 SLP060 P0001 T01170100 $





000
SAUS41 KLWX 041301 COR
MTRRYT
METAR KRYT 041253Z AUTO 00000KT 4SM -RA BR OVC004 12/10 A2971 RMK
AO2 RAB39 SLP060 P0001 T01170100 $





000
SAUS41 KLWX 041300 COR
MTRRYT
METAR KRYT 041253Z AUTO 00000KT 4SM -RA BR OVC004 12/10 A2971 RMK
AO2 RAB39 SLP060 P0001 T01170100 $





000
SAUS41 KLWX 041300
MTRRYT
METAR KRYT 041253Z AUTO 00000KT 4SM -RA BR OVC004 12/10 A2971 RMK
AO2 RAB39 SLP060 P0001 T01170100 $





000
SAUS41 KLWX 041300 COR
MTRRYT
METAR KRYT 041253Z AUTO 00000KT 4SM -RA BR OVC004 12/10 A2971 RMK
AO2 RAB39 SLP060 P0001 T01170100 $





000
SAUS41 KLWX 041300
MTRRYT
METAR KRYT 041253Z AUTO 00000KT 4SM -RA BR OVC004 12/10 A2971 RMK
AO2 RAB39 SLP060 P0001 T01170100 $





000
SAUS41 KLWX 041258 COR
MTRDMH
METAR KDMH 041254Z AUTO 12/09 A2975 RMK AO1 SLP074 T01220094





000
SAUS41 KLWX 041258 COR
MTRDMH
METAR KDMH 041254Z AUTO 12/09 A2975 RMK AO1 SLP074 T01220094





000
SAUS41 KLWX 041255
MTRNAK
METAR KNAK 041254Z AUTO 05004KT 10SM OVC013 12/10 A2974 RMK AO2
SLP071 T01170100





000
SAUS41 KLWX 041255
MTRNAK
METAR KNAK 041254Z AUTO 05004KT 10SM OVC013 12/10 A2974 RMK AO2
SLP071 T01170100





000
SAUS41 KLWX 041244 COR
MTRRYT
SPECI KRYT 041235Z AUTO 00000KT 2 1/2SM BR OVC004 11/10 A2971 RMK
AO2 P0001 $





000
SAUS41 KLWX 041244 COR
MTRRYT
SPECI KRYT 041235Z AUTO 00000KT 2 1/2SM BR OVC004 11/10 A2971 RMK
AO2 P0001 $





000
SAUS41 KLWX 041243
MTRRYT
SPECI KRYT 041235Z AUTO 00000KT 2 1/2SM BR OVC004 11/10 A2971 RMK
AO2 P0001 $





000
SAUS41 KLWX 041243
MTRRYT
SPECI KRYT 041235Z AUTO 00000KT 2 1/2SM BR OVC004 11/10 A2971 RMK
AO2 P0001 $





000
SAUS41 KLWX 041222
MTRRYT
SPECI KRYT 041216Z AUTO 00000KT 2 1/2SM BR OVC004 11/11 A2972 RMK
AO2 $





000
SAUS41 KLWX 041222
MTRRYT
SPECI KRYT 041216Z AUTO 00000KT 2 1/2SM BR OVC004 11/11 A2972 RMK
AO2 $





000
SAUS41 KLWX 041215
MTRNAK
SPECI KNAK 041214Z AUTO 06005KT 10SM OVC014 12/10 A2974 RMK AO2
T01170100





000
SAUS41 KLWX 041215
MTRNAK
SPECI KNAK 041214Z AUTO 06005KT 10SM OVC014 12/10 A2974 RMK AO2
T01170100





000
SAUS41 KLWX 041201 COR
MTRRYT
SPECI KRYT 041200Z AUTO 00000KT 3SM BR OVC002 11/11 A2972 RMK AO2 $





000
SAUS41 KLWX 041200
MTRRYT
SPECI KRYT 041200Z AUTO 00000KT 3SM BR OVC002 11/11 A2972 RMK AO2 $





000
SAUS41 KLWX 041158 COR
MTRDMH
METAR KDMH 041154Z AUTO 12/09 A2976 RMK AO1 SLP076 60003 70007
T01220094 10128 20117 55004





000
SAUS41 KLWX 041155
MTRNAK
METAR KNAK 041154Z AUTO 10009KT 10SM OVC016 12/10 A2974 RMK AO2
SLP071 7//// T01170100 10128 20117 56003





000
SAUS41 KLWX 041140
MTRNAK
SPECI KNAK 041139Z AUTO 10005KT 10SM OVC015 12/10 A2974 RMK AO2
T01170100





000
SAUS41 KLWX 041140
MTRNAK
SPECI KNAK 041139Z AUTO 10005KT 10SM OVC015 12/10 A2974 RMK AO2
T01170100





000
SAUS41 KLWX 041133
MTRRYT
SPECI KRYT 041126Z AUTO 04004KT 3/4SM BR OVC004 11/11 A2972 RMK AO2
$





000
SAUS41 KLWX 041133
MTRRYT
SPECI KRYT 041126Z AUTO 04004KT 3/4SM BR OVC004 11/11 A2972 RMK AO2
$





000
SAUS41 KLWX 041125
MTRRYT
SPECI KRYT 041118Z AUTO 00000KT 2SM BR OVC004 11/11 A2972 RMK AO2 $





000
SAUS41 KLWX 041101 COR
MTRRYT
METAR KRYT 041053Z AUTO 00000KT 1SM BR OVC004 12/11 A2971 RMK AO2
SLP059 T01170106 $





000
SAUS41 KLWX 041100 COR
MTRRYT
METAR KRYT 041053Z AUTO 00000KT 1SM BR OVC004 12/11 A2971 RMK AO2
SLP059 T01170106 $





000
SAUS41 KLWX 041100
MTRRYT
METAR KRYT 041053Z AUTO 00000KT 1SM BR OVC004 12/11 A2971 RMK AO2
SLP059 T01170106 $





000
SAUS41 KLWX 041100
MTRRYT
METAR KRYT 041053Z AUTO 00000KT 1SM BR OVC004 12/11 A2971 RMK AO2
SLP059 T01170106 $





000
SAUS41 KLWX 041058 COR
MTRDMH
METAR KDMH 041054Z AUTO 12/10 A2975 RMK AO1 SLP074 T01170100





000
SAUS41 KLWX 041058 COR
MTRDMH
METAR KDMH 041054Z AUTO 12/10 A2975 RMK AO1 SLP074 T01170100





000
SAUS41 KLWX 041055
MTRNAK
METAR KNAK 041054Z AUTO 05005KT 10SM OVC013 12/10 A2974 RMK AO2
SLP073 T01170100 $





000
SAUS41 KLWX 041055
MTRNAK
METAR KNAK 041054Z AUTO 05005KT 10SM OVC013 12/10 A2974 RMK AO2
SLP073 T01170100 $





000
SAUS41 KLWX 041053
MTRRYT
SPECI KRYT 041046Z AUTO 06004KT 3/4SM BR OVC004 12/11 A2971 RMK AO2
$





000
SAUS41 KLWX 041053
MTRRYT
SPECI KRYT 041046Z AUTO 06004KT 3/4SM BR OVC004 12/11 A2971 RMK AO2
$





000
SAUS41 KLWX 041039
MTRRYT
SPECI KRYT 041038Z AUTO 00000KT 2SM BR OVC004 12/11 A2971 RMK AO2 $





000
SAUS41 KLWX 041032
MTRNAK
SPECI KNAK 041030Z AUTO 06006KT 10SM OVC014 12/10 A2974 RMK AO2
T01170100 $





000
SAUS41 KLWX 041006
MTRNAK
SPECI KNAK 041005Z AUTO 05004KT 10SM OVC015 12/10 A2974 RMK AO2
T01170100 $





000
SAUS41 KLWX 041006
MTRNAK
SPECI KNAK 041005Z AUTO 05004KT 10SM OVC015 12/10 A2974 RMK AO2
T01170100 $





000
SAUS41 KLWX 041001 COR
MTRRYT
METAR KRYT 040953Z AUTO 00000KT 4SM BR OVC004 12/11 A2972 RMK AO2
SLP059 T01220111 $





000
SAUS41 KLWX 041000
MTRRYT
METAR KRYT 040953Z AUTO 00000KT 4SM BR OVC004 12/11 A2972 RMK AO2
SLP059 T01220111 $





000
SAUS41 KLWX 041000
MTRRYT
METAR KRYT 040953Z AUTO 00000KT 4SM BR OVC004 12/11 A2972 RMK AO2
SLP059 T01220111 $





000
SAUS41 KLWX 041000 COR
MTRRYT
METAR KRYT 040953Z AUTO 00000KT 4SM BR OVC004 12/11 A2972 RMK AO2
SLP059 T01220111 $





000
SAUS41 KLWX 040958 COR
MTRDMH
METAR KDMH 040954Z AUTO 12/10 A2975 RMK AO1 SLP074 T01170100





000
SAUS41 KLWX 040957
MTRNAK
METAR KNAK 040954Z AUTO VRB03KT 10SM OVC014 12/11 A2974 RMK AO2
SLP072 T01170106 $





000
SAUS41 KLWX 040902
MTRRYT
SPECI KRYT 040901Z AUTO 00000KT 4SM BR OVC002 12/11 A2972 RMK AO2 $





000
SAUS41 KLWX 040902
MTRRYT
SPECI KRYT 040901Z AUTO 00000KT 4SM BR OVC002 12/11 A2972 RMK AO2 $





000
SAUS41 KLWX 040901 COR
MTRRYT
METAR KRYT 040853Z AUTO 00000KT 2 1/2SM BR OVC002 12/11 A2972 RMK
AO2 RAB0756E32 SLP061 P0000 60003 T01220111 56009 $





000
SAUS41 KLWX 040900
MTRRYT
METAR KRYT 040853Z AUTO 00000KT 2 1/2SM BR OVC002 12/11 A2972 RMK
AO2 RAB0756E32 SLP061 P0000 60003 T01220111 56009 $





000
SAUS41 KLWX 040858 COR
MTRDMH
METAR KDMH 040854Z AUTO 12/10 A2977 RMK AO1 SLP080 60003 T01220100
55000





000
SAUS41 KLWX 040858 COR
MTRDMH
METAR KDMH 040854Z AUTO 12/10 A2977 RMK AO1 SLP080 60003 T01220100
55000





000
SAUS41 KLWX 040855
MTRNAK
METAR KNAK 040854Z AUTO 05004KT 10SM OVC012 12/11 A2975 RMK AO2
SLP074 T01220106 56007 $





000
SAUS41 KLWX 040845 COR
MTRRYT
SPECI KRYT 040837Z AUTO 00000KT 2SM BR OVC002 12/11 A2971 RMK AO2
RAB0756E32 P0000 $





000
SAUS41 KLWX 040844 COR
MTRRYT
SPECI KRYT 040837Z AUTO 00000KT 2SM BR OVC002 12/11 A2971 RMK AO2
RAB0756E32 P0000 $





000
SAUS41 KLWX 040829
MTRRYT
SPECI KRYT 040821Z AUTO VRB04KT 2 1/2SM -RA BR OVC002 12/11 A2972
RMK AO2 RAB0756 P0000 $





000
SAUS41 KLWX 040812
MTRRYT
SPECI KRYT 040805Z AUTO 00000KT 3SM -RA BR OVC002 12/11 A2972 RMK
AO2 RAB0756 P0000 $





000
SAUS41 KLWX 040801 COR
MTRRYT
METAR KRYT 040753Z AUTO VRB03KT 2 1/2SM BR OVC002 12/11 A2972 RMK
AO2 RAE05 SLP061 P0000 T01220111 $





000
SAUS41 KLWX 040800
MTRRYT
METAR KRYT 040753Z AUTO VRB03KT 2 1/2SM BR OVC002 12/11 A2972 RMK
AO2 RAE05 SLP061 P0000 T01220111 $





000
SAUS41 KLWX 040758 COR
MTRDMH
METAR KDMH 040754Z AUTO 12/11 A2976 RMK AO1 SLP077 P0001 T01220106





000
SAUS41 KLWX 040755
MTRNAK
METAR KNAK 040754Z AUTO 09006KT 10SM OVC010 12/11 A2975 RMK AO2
SLP074 T01220111 $





000
SAUS41 KLWX 040748 COR
MTRRYT
SPECI KRYT 040740Z AUTO 05003KT 2SM BR OVC002 12/12 A2973 RMK AO2
RAE05 P0000 $





000
SAUS41 KLWX 040747
MTRRYT
SPECI KRYT 040740Z AUTO 05003KT 2SM BR OVC002 12/12 A2973 RMK AO2
RAE05 P0000 $





000
SAUS41 KLWX 040720 COR
MTRRYT
SPECI KRYT 040712Z AUTO 00000KT 2SM BR OVC002 12/12 A2973 RMK AO2
RAE05 P0000 $





000
SAUS41 KLWX 040720 COR
MTRRYT
SPECI KRYT 040712Z AUTO 00000KT 2SM BR OVC002 12/12 A2973 RMK AO2
RAE05 P0000 $





000
SAUS41 KLWX 040719 COR
MTRRYT
SPECI KRYT 040712Z AUTO 00000KT 2SM BR OVC002 12/12 A2973 RMK AO2
RAE05 P0000 $





000
SAUS41 KLWX 040659
MTRRYT
METAR KRYT 040653Z AUTO 00000KT 3SM -RA BR OVC002 13/12 A2973 RMK
AO2 SLP064 P0003 T01280117 $





000
SAUS41 KLWX 040658 COR
MTRDMH
METAR KDMH 040654Z AUTO 12/11 A2974 RMK AO1 SLP072 P0002 T01220106





000
SAUS41 KLWX 040655
MTRNAK
METAR KNAK 040654Z AUTO 07007KT 10SM OVC011 13/12 A2974 RMK AO2
SLP071 T01280117 $





000
SAUS41 KLWX 040655
MTRNAK
METAR KNAK 040654Z AUTO 07007KT 10SM OVC011 13/12 A2974 RMK AO2
SLP071 T01280117 $





000
SAUS41 KLWX 040630 COR
MTRRYT
SPECI KRYT 040629Z AUTO 00000KT 2 1/2SM -RA BR BKN002 BKN006 OVC039
13/12 A2974 RMK AO2 P0002 $





000
SAUS41 KLWX 040629
MTRRYT
SPECI KRYT 040622Z AUTO 00000KT 2 1/2SM -RA BR SCT002 BKN006 OVC039
13/12 A2974 RMK AO2 P0002 $





000
SAUS41 KLWX 040629
MTRRYT
SPECI KRYT 040622Z AUTO 00000KT 2 1/2SM -RA BR SCT002 BKN006 OVC039
13/12 A2974 RMK AO2 P0002 $





000
SAUS41 KLWX 040629
MTRRYT
SPECI KRYT 040629Z AUTO 00000KT 2 1/2SM -RA BR BKN002 BKN006 OVC039
13/12 A2974 RMK AO2 P0002 $





000
SAUS41 KLWX 040629
MTRRYT
SPECI KRYT 040629Z AUTO 00000KT 2 1/2SM -RA BR BKN002 BKN006 OVC039
13/12 A2974 RMK AO2 P0002 $





000
SAUS41 KLWX 040619 COR
MTRRYT
SPECI KRYT 040618Z AUTO 00000KT 3SM -RA BR SCT002 SCT010 OVC039
13/12 A2974 RMK AO2 P0002 $





000
SAUS41 KLWX 040619 COR
MTRRYT
SPECI KRYT 040618Z AUTO 00000KT 3SM -RA BR SCT002 SCT010 OVC039
13/12 A2974 RMK AO2 P0002 $





000
SAUS41 KLWX 040618
MTRRYT
SPECI KRYT 040611Z AUTO 00000KT 1 1/4SM -RA BR FEW002 SCT008 OVC037
13/12 A2975 RMK AO2 P0002 $





000
SAUS41 KLWX 040618
MTRRYT
SPECI KRYT 040618Z AUTO 00000KT 3SM -RA BR SCT002 SCT010 OVC039
13/12 A2974 RMK AO2 P0002 $





000
SAUS41 KLWX 040618
MTRRYT
SPECI KRYT 040618Z AUTO 00000KT 3SM -RA BR SCT002 SCT010 OVC039
13/12 A2974 RMK AO2 P0002 $





000
SAUS41 KLWX 040618
MTRRYT
SPECI KRYT 040611Z AUTO 00000KT 1 1/4SM -RA BR FEW002 SCT008 OVC037
13/12 A2975 RMK AO2 P0002 $





000
SAUS41 KLWX 040609
MTRRYT
SPECI KRYT 040602Z AUTO 00000KT 1 1/4SM -RA BR BKN002 OVC035 13/12
A2975 RMK AO2 P0001 $





000
SAUS41 KLWX 040609
MTRRYT
SPECI KRYT 040602Z AUTO 00000KT 1 1/4SM -RA BR BKN002 OVC035 13/12
A2975 RMK AO2 P0001 $





000
SAUS41 KLWX 040602
MTRNAK
SPECI KNAK 040602Z AUTO 02004KT 10SM BKN013 OVC018 13/12 A2977 RMK
AO2 T01280117 $





000
SAUS41 KLWX 040602
MTRNAK
SPECI KNAK 040602Z AUTO 02004KT 10SM BKN013 OVC018 13/12 A2977 RMK
AO2 T01280117 $





000
SAUS41 KLWX 040559
MTRRYT
METAR KRYT 040553Z AUTO 00000KT 2SM -RA BR FEW002 OVC035 13/12 A2975
RMK AO2 SLP070 P0016 60051 T01280122 10150 20128 58006 $





000
SAUS41 KLWX 040559
MTRRYT
METAR KRYT 040553Z AUTO 00000KT 2SM -RA BR FEW002 OVC035 13/12 A2975
RMK AO2 SLP070 P0016 60051 T01280122 10150 20128 58006 $





000
SAUS41 KLWX 040558 COR
MTRDMH
METAR KDMH 040554Z AUTO 13/12 A2977 RMK AO1 SLP080 P0003 60004
T01280117 10156 20128 58010





000
SAUS41 KLWX 040558 COR
MTRDMH
METAR KDMH 040554Z AUTO 13/12 A2977 RMK AO1 SLP080 P0003 60004
T01280117 10156 20128 58010





000
SAUS41 KLWX 040556
MTRNAK
METAR KNAK 040554Z AUTO 02005KT 10SM SCT013 OVC020 13/12 A2977 RMK
AO2 RAE33 SLP082 P0000 60000 T01280117 10156 20128 58007 $





000
SAUS41 KLWX 040556
MTRNAK
METAR KNAK 040554Z AUTO 02005KT 10SM SCT013 OVC020 13/12 A2977 RMK
AO2 RAE33 SLP082 P0000 60000 T01280117 10156 20128 58007 $





000
SAUS41 KLWX 040552 COR
MTRRYT
SPECI KRYT 040550Z AUTO 00000KT 2SM -RA BR FEW002 SCT012 OVC035
13/12 A2975 RMK AO2 P0015 $





000
SAUS41 KLWX 040552 COR
MTRRYT
SPECI KRYT 040550Z AUTO 00000KT 2SM -RA BR FEW002 SCT012 OVC035
13/12 A2975 RMK AO2 P0015 $





000
SAUS41 KLWX 040551 COR
MTRRYT
SPECI KRYT 040550Z AUTO 00000KT 2SM -RA BR FEW002 SCT012 OVC035
13/12 A2975 RMK AO2 P0015 $





000
SAUS41 KLWX 040551 COR
MTRRYT
SPECI KRYT 040550Z AUTO 00000KT 2SM -RA BR FEW002 SCT012 OVC035
13/12 A2975 RMK AO2 P0015 $





000
SAUS41 KLWX 040551
MTRRYT
SPECI KRYT 040550Z AUTO 00000KT 2SM -RA BR FEW002 SCT012 OVC035
13/12 A2975 RMK AO2 P0015 $





000
SAUS41 KLWX 040551
MTRRYT
SPECI KRYT 040550Z AUTO 00000KT 2SM -RA BR FEW002 SCT012 OVC035
13/12 A2975 RMK AO2 P0015 $





000
SAUS41 KLWX 040523
MTRRYT
SPECI KRYT 040522Z AUTO 00000KT 2 1/2SM -RA BR BKN008 OVC014 13/12
A2976 RMK AO2 CIG 005V011 P0007 $





000
SAUS41 KLWX 040522 COR
MTRRYT
SPECI KRYT 040514Z AUTO 00000KT 1 3/4SM RA BR BKN008 OVC012 13/12
A2976 RMK AO2 CIG 005V009 P0006 $





000
SAUS41 KLWX 040509 COR
MTRRYT
SPECI KRYT 040501Z AUTO 00000KT 2 1/2SM -RA BR BKN008 OVC012 13/12
A2976 RMK AO2 P0002 $





000
SAUS41 KLWX 040509 COR
MTRRYT
SPECI KRYT 040501Z AUTO 00000KT 2 1/2SM -RA BR BKN008 OVC012 13/12
A2976 RMK AO2 P0002 $





000
SAUS41 KLWX 040508
MTRRYT
SPECI KRYT 040501Z AUTO 00000KT 2 1/2SM -RA BR BKN008 OVC012 13/12
A2976 RMK AO2 P0002 $





000
SAUS41 KLWX 040508
MTRRYT
SPECI KRYT 040501Z AUTO 00000KT 2 1/2SM -RA BR BKN008 OVC012 13/12
A2976 RMK AO2 P0002 $





000
SAUS41 KLWX 040506
MTRNAK
SPECI KNAK 040505Z AUTO 06007KT 7SM -RA SCT013 OVC020 13/12 A2978
RMK AO2 P0000 T01330117 $





000
SAUS41 KLWX 040506
MTRNAK
SPECI KNAK 040505Z AUTO 06007KT 7SM -RA SCT013 OVC020 13/12 A2978
RMK AO2 P0000 T01330117 $





000
SAUS41 KLWX 040501 COR
MTRRYT
METAR KRYT 040453Z AUTO 00000KT 3SM -RA BR BKN008 OVC012 13/12 A2976
RMK AO2 SLP075 P0009 T01330122 401940128 $





000
SAUS41 KLWX 040501 COR
MTRRYT
METAR KRYT 040453Z AUTO 00000KT 3SM -RA BR BKN008 OVC012 13/12 A2976
RMK AO2 SLP075 P0009 T01330122 401940128 $





000
SAUS41 KLWX 040500 COR
MTRRYT
METAR KRYT 040453Z AUTO 00000KT 3SM -RA BR BKN008 OVC012 13/12 A2976
RMK AO2 SLP075 P0009 T01330122 401940128 $





000
SAUS41 KLWX 040500 COR
MTRRYT
METAR KRYT 040453Z AUTO 00000KT 3SM -RA BR BKN008 OVC012 13/12 A2976
RMK AO2 SLP075 P0009 T01330122 401940128 $





000
SAUS41 KLWX 040458 COR
MTRDMH
METAR KDMH 040454Z AUTO 13/12 A2979 RMK AO1 SLP087 P0001 T01330117
401890133





000
SAUS41 KLWX 040458 COR
MTRDMH
METAR KDMH 040454Z AUTO 13/12 A2979 RMK AO1 SLP087 P0001 T01330117
401890133





000
SAUS41 KLWX 040455
MTRNAK
METAR KNAK 040454Z AUTO 07004KT 4SM -RA BR BKN013 OVC018 13/12 A2979
RMK AO2 RAB37 SLP090 P0000 T01330117 401720133 $





000
SAUS41 KLWX 040440 COR
MTRRYT
SPECI KRYT 040432Z AUTO 00000KT 1 3/4SM RA BR BKN006 OVC012 13/12
A2976 RMK AO2 CIG 006V009 P0005 $





000
SAUS41 KLWX 040439
MTRRYT
SPECI KRYT 040432Z AUTO 00000KT 1 3/4SM RA BR BKN006 OVC012 13/12
A2976 RMK AO2 CIG 006V009 P0005 $





000
SAUS41 KLWX 040358 COR
MTRDMH
METAR KDMH 040354Z AUTO 14/11 A2978 RMK AO1 SLP083 T01390111





000
SAUS41 KLWX 040358 COR
MTRDMH
METAR KDMH 040354Z AUTO 14/11 A2978 RMK AO1 SLP083 T01390111





000
SAUS41 KLWX 040355
MTRNAK
METAR KNAK 040354Z AUTO 07004KT 10SM OVC013 14/12 A2978 RMK AO2
SLP086 T01390117 $





000
SAUS41 KLWX 040354 COR
MTRRYT
METAR KRYT 040353Z AUTO 00000KT 4SM -RA BR OVC006 14/12 A2977 RMK
AO2 RAB03 CIG 003V010 SLP076 P0002 T01390122 $





000
SAUS41 KLWX 040353 COR
MTRRYT
SPECI KRYT 040346Z AUTO 00000KT 3SM -RA BR BKN006 OVC013 14/13 A2977
RMK AO2 RAB03 CIG 003V011 P0001 $





000
SAUS41 KLWX 040353 COR
MTRRYT
SPECI KRYT 040346Z AUTO 00000KT 3SM -RA BR BKN006 OVC013 14/13 A2977
RMK AO2 RAB03 CIG 003V011 P0001 $





000
SAUS41 KLWX 040342 COR
MTRRYT
SPECI KRYT 040334Z AUTO 00000KT 3SM -RA BR BKN008 OVC013 14/13 A2977
RMK AO2 RAB03 CIG 006V011 P0001 $





000
SAUS41 KLWX 040329 COR
MTRRYT
SPECI KRYT 040320Z AUTO 00000KT 4SM -RA BR OVC011 14/12 A2977 RMK
AO2 RAB03 P0001 $





000
SAUS41 KLWX 040328
MTRRYT
SPECI KRYT 040320Z AUTO 00000KT 4SM -RA BR OVC011 14/12 A2977 RMK
AO2 RAB03 P0001 $





000
SAUS41 KLWX 040301 COR
MTRRYT
METAR KRYT 040253Z AUTO 00000KT 3SM BR SCT006 OVC009 14/13 A2978 RMK
AO2 RAE45 SLP081 P0001 60024 T01390128 50004 $





000
SAUS41 KLWX 040300 COR
MTRRYT
METAR KRYT 040253Z AUTO 00000KT 3SM BR SCT006 OVC009 14/13 A2978 RMK
AO2 RAE45 SLP081 P0001 60024 T01390128 50004 $





000
SAUS41 KLWX 040259
MTRRYT
METAR KRYT 040253Z AUTO 00000KT 3SM BR SCT006 OVC009 14/13 A2978 RMK
AO2 RAE45 SLP081 P0001 60024 T01390128 50004 $





000
SAUS41 KLWX 040258 COR
MTRDMH
METAR KDMH 040254Z AUTO 15/11 A2980 RMK AO1 SLP090 T01500111 51008





000
SAUS41 KLWX 040258 COR
MTRDMH
METAR KDMH 040254Z AUTO 15/11 A2980 RMK AO1 SLP090 T01500111 51008





000
SAUS41 KLWX 040256
MTRNAK
METAR KNAK 040254Z AUTO 06007KT 10SM OVC014 14/12 A2979 RMK AO2
SLP089 T01390122 53002 $





000
SAUS41 KLWX 040247
MTRNAK
SPECI KNAK 040246Z AUTO 06007KT 10SM OVC014 14/12 A2979 RMK AO2
T01440122 $





000
SAUS41 KLWX 040246 COR
MTRRYT
SPECI KRYT 040237Z AUTO 00000KT 3SM -RA BR OVC006 14/13 A2978 RMK
AO2 CIG 002V007 P0001 $





000
SAUS41 KLWX 040246 COR
MTRRYT
SPECI KRYT 040237Z AUTO 00000KT 3SM -RA BR OVC006 14/13 A2978 RMK
AO2 CIG 002V007 P0001 $





000
SAUS41 KLWX 040245 COR
MTRRYT
SPECI KRYT 040237Z AUTO 00000KT 3SM -RA BR OVC006 14/13 A2978 RMK
AO2 CIG 002V007 P0001 $





000
SAUS41 KLWX 040245 COR
MTRRYT
SPECI KRYT 040237Z AUTO 00000KT 3SM -RA BR OVC006 14/13 A2978 RMK
AO2 CIG 002V007 P0001 $





000
SAUS41 KLWX 040237 COR
MTRRYT
SPECI KRYT 040229Z AUTO 00000KT 2 1/2SM -RA BR OVC006 14/13 A2978
RMK AO2 CIG 002V009 P0001 $





000
SAUS41 KLWX 040237 COR
MTRRYT
SPECI KRYT 040229Z AUTO 00000KT 2 1/2SM -RA BR OVC006 14/13 A2978
RMK AO2 CIG 002V009 P0001 $





000
SAUS41 KLWX 040236 COR
MTRRYT
SPECI KRYT 040229Z AUTO 00000KT 2 1/2SM -RA BR OVC006 14/13 A2978
RMK AO2 CIG 002V009 P0001 $





000
SAUS41 KLWX 040236
MTRRYT
SPECI KRYT 040229Z AUTO 00000KT 2 1/2SM -RA BR OVC006 14/13 A2978
RMK AO2 CIG 002V009 P0001 $





000
SAUS41 KLWX 040207 COR
MTRRYT
SPECI KRYT 040159Z AUTO 00000KT 3SM -RA BR BKN006 BKN048 OVC075
14/13 A2978 RMK AO2 P0001 $





000
SAUS41 KLWX 040206
MTRRYT
SPECI KRYT 040159Z AUTO 00000KT 3SM -RA BR BKN006 BKN048 OVC075
14/13 A2978 RMK AO2 P0001 $





000
SAUS41 KLWX 040158 COR
MTRDMH
METAR KDMH 040154Z AUTO 15/11 A2979 RMK AO1 SLP089 T01500111





000
SAUS41 KLWX 040158 COR
MTRDMH
METAR KDMH 040154Z AUTO 15/11 A2979 RMK AO1 SLP089 T01500111





000
SAUS41 KLWX 040157
MTRNAK
METAR KNAK 040154Z AUTO 06007KT 10SM OVC017 14/12 A2978 RMK AO2
SLP085 T01440122 $





000
SAUS41 KLWX 040155 COR
MTRRYT
METAR KRYT 040153Z AUTO 00000KT 2 1/2SM -RA BR SCT006 BKN042 OVC075
14/13 A2978 RMK AO2 SLP082 P0020 T01390128 $





000
SAUS41 KLWX 040154
MTRRYT
METAR KRYT 040153Z AUTO 00000KT 2 1/2SM -RA BR SCT006 BKN042 OVC075
14/13 A2978 RMK AO2 SLP082 P0020 T01390128 $





000
SAUS41 KLWX 040131 COR
MTRRYT
SPECI KRYT 040130Z AUTO 00000KT 1 1/2SM RA BR SCT004 BKN012 OVC040
14/13 A2979 RMK AO2 P0015 $





000
SAUS41 KLWX 040131 COR
MTRRYT
SPECI KRYT 040130Z AUTO 00000KT 1 1/2SM RA BR SCT004 BKN012 OVC040
14/13 A2979 RMK AO2 P0015 $





000
SAUS41 KLWX 040130
MTRRYT
SPECI KRYT 040122Z AUTO 00000KT 2SM RA BR FEW004 BKN024 OVC048 14/13
A2979 RMK AO2 P0011 $





000
SAUS41 KLWX 040120 COR
MTRRYT
SPECI KRYT 040112Z AUTO 00000KT 1 3/4SM RA BR SCT021 BKN027 OVC048
14/13 A2979 RMK AO2 P0008 $





000
SAUS41 KLWX 040120 COR
MTRRYT
SPECI KRYT 040112Z AUTO 00000KT 1 3/4SM RA BR SCT021 BKN027 OVC048
14/13 A2979 RMK AO2 P0008 $





000
SAUS41 KLWX 040111 COR
MTRRYT
SPECI KRYT 040103Z AUTO 00000KT 2SM RA BR FEW017 OVC046 14/13 A2978
RMK AO2 P0004 $





000
SAUS41 KLWX 040101 COR
MTRRYT
METAR KRYT 040053Z AUTO 00000KT 3SM -RA BR FEW017 BKN044 OVC050
14/13 A2978 RMK AO2 RAB36 SLP081 P0003 T01440128 $





000
SAUS41 KLWX 040100
MTRRYT
METAR KRYT 040053Z AUTO 00000KT 3SM -RA BR FEW017 BKN044 OVC050
14/13 A2978 RMK AO2 RAB36 SLP081 P0003 T01440128 $





000
SAUS41 KLWX 040100
MTRRYT
METAR KRYT 040053Z AUTO 00000KT 3SM -RA BR FEW017 BKN044 OVC050
14/13 A2978 RMK AO2 RAB36 SLP081 P0003 T01440128 $





000
SAUS41 KLWX 040058 COR
MTRDMH
METAR KDMH 040054Z AUTO 15/12 A2979 RMK AO1 SLP087 T01500117





000
SAUS41 KLWX 040055
MTRNAK
METAR KNAK 040054Z AUTO 08009KT 10SM BKN017 15/13 A2977 RMK AO2
SLP084 T01500128 $





000
SAUS41 KLWX 040055
MTRNAK
METAR KNAK 040054Z AUTO 08009KT 10SM BKN017 15/13 A2977 RMK AO2
SLP084 T01500128 $





000
SAUS41 KLWX 040021
MTRNAK
SPECI KNAK 040020Z AUTO 07006KT 9SM SCT020 15/13 A2978 RMK AO2
T01500128 $





000
SAUS41 KLWX 040012 COR
MTRRYT
SPECI KRYT 040004Z AUTO 00000KT 3SM BR SCT019 BKN040 OVC070 14/13
A2976 RMK AO2 $





000
SAUS41 KLWX 040012 COR
MTRRYT
SPECI KRYT 040004Z AUTO 00000KT 3SM BR SCT019 BKN040 OVC070 14/13
A2976 RMK AO2 $





000
SAUS41 KLWX 040011
MTRRYT
SPECI KRYT 040004Z AUTO 00000KT 3SM BR SCT019 BKN040 OVC070 14/13
A2976 RMK AO2 $





000
SAUS41 KLWX 040011
MTRRYT
SPECI KRYT 040004Z AUTO 00000KT 3SM BR SCT019 BKN040 OVC070 14/13
A2976 RMK AO2 $





000
SAUS41 KLWX 032358 COR
MTRDMH
METAR KDMH 032354Z AUTO 16/12 A2977 RMK AO1 SLP082 T01560122 10189
20156 53002





000
SAUS41 KLWX 032355
MTRNAK
METAR KNAK 032354Z AUTO 08006KT 7SM BKN022 16/13 A2978 RMK AO2
SLP087 6//// T01560133 10172 20156 51008 $





000
SAUS41 KLWX 032355
MTRNAK
METAR KNAK 032354Z AUTO 08006KT 7SM BKN022 16/13 A2978 RMK AO2
SLP087 6//// T01560133 10172 20156 51008 $





000
SAUS41 KLWX 032354
MTRRYT
METAR KRYT 032353Z AUTO 00000KT 5SM BR BKN019 BKN038 OVC060 15/13
A2976 RMK AO2 RAE45 SLP075 P0001 60002 T01500128 10194 20144 50005 $





000
SAUS41 KLWX 032354
MTRRYT
METAR KRYT 032353Z AUTO 00000KT 5SM BR BKN019 BKN038 OVC060 15/13
A2976 RMK AO2 RAE45 SLP075 P0001 60002 T01500128 10194 20144 50005 $





000
SAUS41 KLWX 032353 COR
MTRRYT
SPECI KRYT 032351Z AUTO 00000KT 6SM BR BKN019 BKN038 OVC065 14/13
A2976 RMK AO2 RAE45 P0001 $





000
SAUS41 KLWX 032352
MTRRYT
SPECI KRYT 032351Z AUTO 00000KT 6SM BR BKN019 BKN038 OVC065 14/13
A2976 RMK AO2 RAE45 P0001 $





000
SAUS41 KLWX 032338
MTRNAK
SPECI KNAK 032337Z AUTO 09008KT 7SM BKN021 16/13 A2977 RMK AO2
T01560133 $





000
SAUS41 KLWX 032338
MTRNAK
SPECI KNAK 032337Z AUTO 09008KT 7SM BKN021 16/13 A2977 RMK AO2
T01560133 $





000
SAUS41 KLWX 032314
MTRNAK
SPECI KNAK 032313Z AUTO 10009KT 6SM HZ FEW025 16/13 A2977 RMK AO2
T01610133 $





000
SAUS41 KLWX 032314
MTRNAK
SPECI KNAK 032313Z AUTO 10009KT 6SM HZ FEW025 16/13 A2977 RMK AO2
T01610133 $





000
SAUS41 KLWX 032311 COR
MTRRYT
SPECI KRYT 032309Z AUTO 00000KT 4SM -RA SCT026 BKN045 OVC065 16/13
A2975 RMK AO2 P0001 $





000
SAUS41 KLWX 032311 COR
MTRRYT
SPECI KRYT 032309Z AUTO 00000KT 4SM -RA SCT026 BKN045 OVC065 16/13
A2975 RMK AO2 P0001 $





000
SAUS41 KLWX 032310
MTRRYT
SPECI KRYT 032309Z AUTO 00000KT 4SM -RA SCT026 BKN045 OVC065 16/13
A2975 RMK AO2 P0001 $





000
SAUS41 KLWX 032310
MTRRYT
SPECI KRYT 032309Z AUTO 00000KT 4SM -RA SCT026 BKN045 OVC065 16/13
A2975 RMK AO2 P0001 $





000
SAUS41 KLWX 032302 COR
MTRRYT
METAR KRYT 032253Z AUTO 00000KT 5SM -RA BKN028 OVC046 16/12 A2975
RMK AO2 RAB39 SLP072 P0001 T01610122 $





000
SAUS41 KLWX 032301
MTRRYT
METAR KRYT 032253Z AUTO 00000KT 5SM -RA BKN028 OVC046 16/12 A2975
RMK AO2 RAB39 SLP072 P0001 T01610122 $





000
SAUS41 KLWX 032258 COR
MTRDMH
METAR KDMH 032254Z AUTO 17/13 A2977 RMK AO1 SLP079 T01670133





000
SAUS41 KLWX 032256
MTRNAK
METAR KNAK 032254Z AUTO 11005KT 6SM BR SCT016 BKN025 BKN050 16/14
A2978 RMK AO2 RAB08E44 SLP085 P0000 T01610139 $





000
SAUS41 KLWX 032256
MTRNAK
METAR KNAK 032254Z AUTO 11005KT 6SM BR SCT016 BKN025 BKN050 16/14
A2978 RMK AO2 RAB08E44 SLP085 P0000 T01610139 $





000
SAUS41 KLWX 032158 COR
MTRDMH
METAR KDMH 032154Z AUTO 17/13 A2977 RMK AO1 SLP079 T01720133





000
SAUS41 KLWX 032156
MTRNAK
METAR KNAK 032154Z AUTO 02005KT 10SM FEW110 17/13 A2978 RMK AO2
SLP086 T01670133





000
SAUS41 KLWX 032058 COR
MTRDMH
METAR KDMH 032054Z AUTO 18/13 A2977 RMK AO1 SLP080 T01830128 58011





000
SAUS41 KLWX 032058 COR
MTRDMH
METAR KDMH 032054Z AUTO 18/13 A2977 RMK AO1 SLP080 T01830128 58011





000
SAUS41 KLWX 032055
MTRNAK
METAR KNAK 032054Z AUTO 05009KT 10SM BKN110 17/13 A2976 RMK AO2
SLP078 T01670133 58009





000
SAUS41 KLWX 032007
MTRNAK
SPECI KNAK 032006Z AUTO 03007KT 9SM SCT014 17/14 A2976 RMK AO2
T01720139





000
SAUS41 KLWX 032001 COR
MTRRYT
METAR KRYT 031953Z AUTO VRB03KT 10SM SCT027 BKN032 18/12 A2974 RMK
AO2 SLP066 T01830122 $





000
SAUS41 KLWX 032000
MTRRYT
METAR KRYT 031953Z AUTO VRB03KT 10SM SCT027 BKN032 18/12 A2974 RMK
AO2 SLP066 T01830122 $





000
SAUS41 KLWX 032000 COR
MTRRYT
METAR KRYT 031953Z AUTO VRB03KT 10SM SCT027 BKN032 18/12 A2974 RMK
AO2 SLP066 T01830122 $





000
SAUS41 KLWX 031958 COR
MTRDMH
METAR KDMH 031954Z AUTO 18/13 A2978 RMK AO1 SLP082 T01830128





000
SAUS41 KLWX 031955
MTRNAK
METAR KNAK 031954Z AUTO 06010KT 8SM BKN014 BKN080 17/14 A2976 RMK
AO2 SLP079 T01670139





000
SAUS41 KLWX 031943
MTRRYT
SPECI KRYT 031936Z AUTO VRB04KT 10SM BKN028 18/12 A2975 RMK AO2 $





000
SAUS41 KLWX 031901 COR
MTRRYT
METAR KRYT 031853Z AUTO 04006KT 10SM FEW025 OVC032 18/12 A2977 RMK
AO2 SLP074 T01780122 $





000
SAUS41 KLWX 031900
MTRRYT
METAR KRYT 031853Z AUTO 04006KT 10SM FEW025 OVC032 18/12 A2977 RMK
AO2 SLP074 T01780122 $





000
SAUS41 KLWX 031900
MTRRYT
METAR KRYT 031853Z AUTO 04006KT 10SM FEW025 OVC032 18/12 A2977 RMK
AO2 SLP074 T01780122 $





000
SAUS41 KLWX 031858 COR
MTRDMH
METAR KDMH 031854Z AUTO 18/13 A2980 RMK AO1 SLP090 T01830133





000
SAUS41 KLWX 031856
MTRNAK
METAR KNAK 031854Z AUTO 02006KT 8SM OVC011 16/14 A2979 RMK AO2
SLP089 T01610139





000
SAUS41 KLWX 031856
MTRNAK
METAR KNAK 031854Z AUTO 02006KT 8SM OVC011 16/14 A2979 RMK AO2
SLP089 T01610139





000
SAUS41 KLWX 031844
MTRNAK
SPECI KNAK 031842Z AUTO 04006KT 8SM OVC010 16/14 A2979 RMK AO2
T01610139





000
SAUS41 KLWX 031810 COR
MTRRYT
SPECI KRYT 031802Z AUTO 02004KT 10SM SCT019 BKN024 OVC049 17/12
A2979 RMK AO2 $





000
SAUS41 KLWX 031810 COR
MTRRYT
SPECI KRYT 031802Z AUTO 02004KT 10SM SCT019 BKN024 OVC049 17/12
A2979 RMK AO2 $





000
SAUS41 KLWX 031801 COR
MTRRYT
METAR KRYT 031753Z AUTO 04005KT 10SM SCT022 BKN036 OVC049 17/12
A2978 RMK AO2 SLP080 T01670122 10167 20133 58009 $





000
SAUS41 KLWX 031801 COR
MTRRYT
METAR KRYT 031753Z AUTO 04005KT 10SM SCT022 BKN036 OVC049 17/12
A2978 RMK AO2 SLP080 T01670122 10167 20133 58009 $





000
SAUS41 KLWX 031800
MTRRYT
METAR KRYT 031753Z AUTO 04005KT 10SM SCT022 BKN036 OVC049 17/12
A2978 RMK AO2 SLP080 T01670122 10167 20133 58009 $





000
SAUS41 KLWX 031800
MTRRYT
METAR KRYT 031753Z AUTO 04005KT 10SM SCT022 BKN036 OVC049 17/12
A2978 RMK AO2 SLP080 T01670122 10167 20133 58009 $





000
SAUS41 KLWX 031758 COR
MTRDMH
METAR KDMH 031754Z AUTO 18/14 A2980 RMK AO1 SLP091 T01780139 10178
20156 58002





000
SAUS41 KLWX 031756
MTRNAK
METAR KNAK 031754Z AUTO 02005KT 6SM BR OVC007 16/14 A2978 RMK AO2
SLP087 60000 T01560144 10167 20150 58004





000
SAUS41 KLWX 031701 COR
MTRRYT
METAR KRYT 031653Z AUTO 00000KT 10SM OVC015 16/12 A2980 RMK AO2
SLP086 T01560117 $





000
SAUS41 KLWX 031701 COR
MTRRYT
METAR KRYT 031653Z AUTO 00000KT 10SM OVC015 16/12 A2980 RMK AO2
SLP086 T01560117 $





000
SAUS41 KLWX 031700 COR
MTRRYT
METAR KRYT 031653Z AUTO 00000KT 10SM OVC015 16/12 A2980 RMK AO2
SLP086 T01560117 $





000
SAUS41 KLWX 031700
MTRRYT
METAR KRYT 031653Z AUTO 00000KT 10SM OVC015 16/12 A2980 RMK AO2
SLP086 T01560117 $





000
SAUS41 KLWX 031700
MTRRYT
METAR KRYT 031653Z AUTO 00000KT 10SM OVC015 16/12 A2980 RMK AO2
SLP086 T01560117 $





000
SAUS41 KLWX 031700 COR
MTRRYT
METAR KRYT 031653Z AUTO 00000KT 10SM OVC015 16/12 A2980 RMK AO2
SLP086 T01560117 $





000
SAUS41 KLWX 031658 COR
MTRDMH
METAR KDMH 031654Z AUTO 17/14 A2980 RMK AO1 SLP091 T01670139





000
SAUS41 KLWX 031658 COR
MTRDMH
METAR KDMH 031654Z AUTO 17/14 A2980 RMK AO1 SLP091 T01670139





000
SAUS41 KLWX 031656
MTRNAK
METAR KNAK 031654Z AUTO 01007KT 7SM OVC007 16/14 A2980 RMK AO2 CIG
006V011 SLP092 T01560144





000
SAUS41 KLWX 031612 COR
MTRRYT
SPECI KRYT 031605Z AUTO 00000KT 10SM FEW009 OVC015 16/12 A2980 RMK
AO2 $





000
SAUS41 KLWX 031612 COR
MTRRYT
SPECI KRYT 031605Z AUTO 00000KT 10SM FEW009 OVC015 16/12 A2980 RMK
AO2 $





000
SAUS41 KLWX 031611
MTRRYT
SPECI KRYT 031605Z AUTO 00000KT 10SM FEW009 OVC015 16/12 A2980 RMK
AO2 $





000
SAUS41 KLWX 031611
MTRRYT
SPECI KRYT 031605Z AUTO 00000KT 10SM FEW009 OVC015 16/12 A2980 RMK
AO2 $





000
SAUS41 KLWX 031601 COR
MTRRYT
METAR KRYT 031553Z AUTO 05004KT 10SM OVC011 15/12 A2981 RMK AO2
SLP089 T01500117 $





000
SAUS41 KLWX 031601 COR
MTRRYT
METAR KRYT 031553Z AUTO 05004KT 10SM OVC011 15/12 A2981 RMK AO2
SLP089 T01500117 $





000
SAUS41 KLWX 031600
MTRRYT
METAR KRYT 031553Z AUTO 05004KT 10SM OVC011 15/12 A2981 RMK AO2
SLP089 T01500117 $





000
SAUS41 KLWX 031600
MTRRYT
METAR KRYT 031553Z AUTO 05004KT 10SM OVC011 15/12 A2981 RMK AO2
SLP089 T01500117 $





000
SAUS41 KLWX 031558 COR
MTRDMH
METAR KDMH 031554Z AUTO 17/14 A2981 RMK AO1 SLP093 T01720144





000
SAUS41 KLWX 031556
MTRNAK
METAR KNAK 031554Z AUTO 02005KT 3SM BR OVC006 16/15 A2980 RMK AO2
SLP094 T01560150





000
SAUS41 KLWX 031502 COR
MTRRYT
METAR KRYT 031453Z AUTO 05007KT 10SM OVC009 14/12 A2981 RMK AO2
SLP091 T01390117 53003 $





000
SAUS41 KLWX 031458 COR
MTRDMH
METAR KDMH 031454Z AUTO 17/15 A2981 RMK AO1 SLP093 T01670150 53003





000
SAUS41 KLWX 031456
MTRNAK
METAR KNAK 031454Z AUTO 00000KT 3SM BR OVC006 16/15 A2980 RMK AO2
SLP091 60000 T01610150 51003





000
SAUS41 KLWX 031444
MTRNAK
SPECI KNAK 031443Z AUTO 00000KT 2 1/2SM BR OVC006 16/15 A2980 RMK
AO2 T01560150





000
SAUS41 KLWX 031401 COR
MTRRYT
METAR KRYT 031353Z AUTO VRB03KT 10SM OVC009 14/12 A2981 RMK AO2
SLP090 T01390117 $





000
SAUS41 KLWX 031400 COR
MTRRYT
METAR KRYT 031353Z AUTO VRB03KT 10SM OVC009 14/12 A2981 RMK AO2
SLP090 T01390117 $





000
SAUS41 KLWX 031400
MTRRYT
METAR KRYT 031353Z AUTO VRB03KT 10SM OVC009 14/12 A2981 RMK AO2
SLP090 T01390117 $





000
SAUS41 KLWX 031358 COR
MTRDMH
METAR KDMH 031354Z AUTO 16/15 A2981 RMK AO1 SLP093 T01610150





000
SAUS41 KLWX 031357
MTRNAK
METAR KNAK 031354Z AUTO 00000KT 6SM BR OVC006 16/15 A2979 RMK AO2
SLP090 T01610150





000
SAUS41 KLWX 031258 COR
MTRDMH
METAR KDMH 031254Z AUTO 16/15 A2980 RMK AO1 SLP090 T01560150





000
SAUS41 KLWX 031258 COR
MTRDMH
METAR KDMH 031254Z AUTO 16/15 A2980 RMK AO1 SLP090 T01560150





000
SAUS41 KLWX 031256
MTRNAK
METAR KNAK 031254Z AUTO 34004KT 8SM OVC007 16/14 A2979 RMK AO2
RAB06E29 SLP089 P0000 T01560144





000
SAUS41 KLWX 031256
MTRNAK
METAR KNAK 031254Z AUTO 34004KT 8SM OVC007 16/14 A2979 RMK AO2
RAB06E29 SLP089 P0000 T01560144





000
SAUS41 KLWX 031201 COR
MTRRYT
METAR KRYT 031153Z AUTO 06003KT 10SM OVC005 14/13 A2980 RMK AO2
SLP085 60012 70111 T01440128 10161 20144 51005 $





000
SAUS41 KLWX 031201 COR
MTRRYT
METAR KRYT 031153Z AUTO 06003KT 10SM OVC005 14/13 A2980 RMK AO2
SLP085 60012 70111 T01440128 10161 20144 51005 $





000
SAUS41 KLWX 031200 COR
MTRRYT
METAR KRYT 031153Z AUTO 06003KT 10SM OVC005 14/13 A2980 RMK AO2
SLP085 60012 70111 T01440128 10161 20144 51005 $





000
SAUS41 KLWX 031200 COR
MTRRYT
METAR KRYT 031153Z AUTO 06003KT 10SM OVC005 14/13 A2980 RMK AO2
SLP085 60012 70111 T01440128 10161 20144 51005 $





000
SAUS41 KLWX 031159
MTRRYT
METAR KRYT 031153Z AUTO 06003KT 10SM OVC005 14/13 A2980 RMK AO2
SLP085 60012 70111 T01440128 10161 20144 51005 $





000
SAUS41 KLWX 031159
MTRRYT
METAR KRYT 031153Z AUTO 06003KT 10SM OVC005 14/13 A2980 RMK AO2
SLP085 60012 70111 T01440128 10161 20144 51005 $





000
SAUS41 KLWX 031158 COR
MTRDMH
METAR KDMH 031154Z AUTO 16/14 A2980 RMK AO1 SLP091 60004 70025
T01560144 10161 20156 50002





000
SAUS41 KLWX 031158 COR
MTRDMH
METAR KDMH 031154Z AUTO 16/14 A2980 RMK AO1 SLP091 60004 70025
T01560144 10161 20156 50002





000
SAUS41 KLWX 031156
MTRNAK
METAR KNAK 031154Z AUTO 00000KT 9SM OVC007 15/14 A2979 RMK AO2
RAE11B33E51 SLP088 P0001 60002 7//// T01500144 10167 20150 56001





000
SAUS41 KLWX 031143 COR
MTRRYT
SPECI KRYT 031135Z AUTO 06004KT 7SM OVC005 14/13 A2979 RMK AO2 CIG
004V008 $





000
SAUS41 KLWX 031142
MTRRYT
SPECI KRYT 031135Z AUTO 06004KT 7SM OVC005 14/13 A2979 RMK AO2 CIG
004V008 $





000
SAUS41 KLWX 031142 COR
MTRRYT
SPECI KRYT 031135Z AUTO 06004KT 7SM OVC005 14/13 A2979 RMK AO2 CIG
004V008 $





000
SAUS41 KLWX 031101 COR
MTRRYT
METAR KRYT 031053Z AUTO 00000KT 4SM BR OVC003 14/13 A2980 RMK AO2
SLP083 T01440133 $





000
SAUS41 KLWX 031101 COR
MTRRYT
METAR KRYT 031053Z AUTO 00000KT 4SM BR OVC003 14/13 A2980 RMK AO2
SLP083 T01440133 $





000
SAUS41 KLWX 031100 COR
MTRRYT
METAR KRYT 031053Z AUTO 00000KT 4SM BR OVC003 14/13 A2980 RMK AO2
SLP083 T01440133 $





000
SAUS41 KLWX 031100 COR
MTRRYT
METAR KRYT 031053Z AUTO 00000KT 4SM BR OVC003 14/13 A2980 RMK AO2
SLP083 T01440133 $





000
SAUS41 KLWX 031100
MTRRYT
METAR KRYT 031053Z AUTO 00000KT 4SM BR OVC003 14/13 A2980 RMK AO2
SLP083 T01440133 $





000
SAUS41 KLWX 031100
MTRRYT
METAR KRYT 031053Z AUTO 00000KT 4SM BR OVC003 14/13 A2980 RMK AO2
SLP083 T01440133 $





000
SAUS41 KLWX 031058 COR
MTRDMH
METAR KDMH 031054Z AUTO 16/14 A2980 RMK AO1 SLP091 T01560144





000
SAUS41 KLWX 031058 COR
MTRDMH
METAR KDMH 031054Z AUTO 16/14 A2980 RMK AO1 SLP091 T01560144





000
SAUS41 KLWX 031055
MTRNAK
METAR KNAK 031054Z AUTO 00000KT 5SM -RA BR OVC006 15/14 A2979 RMK
AO2 RAE10B38 SLP091 P0000 T01500144 $





000
SAUS41 KLWX 031030
MTRRYT
SPECI KRYT 031023Z AUTO 00000KT 7SM OVC005 14/13 A2980 RMK AO2 $





000
SAUS41 KLWX 031001 COR
MTRRYT
METAR KRYT 030953Z AUTO 00000KT 9SM BKN007 BKN010 OVC017 15/13 A2979
RMK AO2 RAE10B28E37 SLP078 P0001 T01500133 $





000
SAUS41 KLWX 031000 COR
MTRRYT
METAR KRYT 030953Z AUTO 00000KT 9SM BKN007 BKN010 OVC017 15/13 A2979
RMK AO2 RAE10B28E37 SLP078 P0001 T01500133 $





000
SAUS41 KLWX 031000
MTRRYT
METAR KRYT 030953Z AUTO 00000KT 9SM BKN007 BKN010 OVC017 15/13 A2979
RMK AO2 RAE10B28E37 SLP078 P0001 T01500133 $





000
SAUS41 KLWX 030958 COR
MTRDMH
METAR KDMH 030954Z AUTO 16/14 A2980 RMK AO1 SLP091 T01560144





000
SAUS41 KLWX 030957
MTRNAK
METAR KNAK 030954Z AUTO 00000KT 8SM -RA BKN007 OVC100 15/14 A2978
RMK AO2 SLP086 P0000 T01500144 $





000
SAUS41 KLWX 030937
MTRRYT
SPECI KRYT 030936Z AUTO 00000KT 10SM -RA FEW008 BKN017 OVC024 16/14
A2979 RMK AO2 RAE10B28 P0001 $





000
SAUS41 KLWX 030911 COR
MTRRYT
SPECI KRYT 030903Z AUTO 00000KT 6SM -RA BR FEW006 BKN010 OVC015
16/14 A2979 RMK AO2 P0001 $





000
SAUS41 KLWX 030910
MTRRYT
SPECI KRYT 030903Z AUTO 00000KT 6SM -RA BR FEW006 BKN010 OVC015
16/14 A2979 RMK AO2 P0001 $





000
SAUS41 KLWX 030901 COR
MTRRYT
METAR KRYT 030853Z AUTO 00000KT 7SM -RA SCT006 OVC015 16/14 A2979
RMK AO2 RAB18 SLP078 P0003 60011 T01610144 55004 $





000
SAUS41 KLWX 030901 COR
MTRRYT
METAR KRYT 030853Z AUTO 00000KT 7SM -RA SCT006 OVC015 16/14 A2979
RMK AO2 RAB18 SLP078 P0003 60011 T01610144 55004 $





000
SAUS41 KLWX 030858 COR
MTRDMH
METAR KDMH 030854Z AUTO 16/14 A2979 RMK AO1 SLP088 P0002 60004
T01560144 58013





000
SAUS41 KLWX 030858 COR
MTRDMH
METAR KDMH 030854Z AUTO 16/14 A2979 RMK AO1 SLP088 P0002 60004
T01560144 58013





000
SAUS41 KLWX 030855
MTRNAK
METAR KNAK 030854Z AUTO 35004KT 6SM -RA BR OVC007 15/14 A2979 RMK
AO2 SLP089 P0000 60001 T01500144 56010 $





000
SAUS41 KLWX 030814
MTRNAK
SPECI KNAK 030813Z AUTO 35007KT 4SM -RA BR OVC005 15/14 A2980 RMK
AO2 P0000 T01500144 $





000
SAUS41 KLWX 030807
MTRNAK
SPECI KNAK 030806Z AUTO 34006KT 2 1/2SM -RA BR OVC005 15/15 A2980
RMK AO2 P0000 T01500150 $





000
SAUS41 KLWX 030801 COR
MTRRYT
METAR KRYT 030753Z AUTO 00000KT 5SM BR OVC004 16/15 A2978 RMK AO2
RAE35 SLP075 P0002 T01610150 $





000
SAUS41 KLWX 030801 COR
MTRRYT
METAR KRYT 030753Z AUTO 00000KT 5SM BR OVC004 16/15 A2978 RMK AO2
RAE35 SLP075 P0002 T01610150 $





000
SAUS41 KLWX 030800
MTRRYT
METAR KRYT 030753Z AUTO 00000KT 5SM BR OVC004 16/15 A2978 RMK AO2
RAE35 SLP075 P0002 T01610150 $





000
SAUS41 KLWX 030758 COR
MTRDMH
METAR KDMH 030754Z AUTO 16/14 A2981 RMK AO1 SLP094 P0002 T01560144





000
SAUS41 KLWX 030756
MTRNAK
METAR KNAK 030754Z AUTO 36007KT 1 1/4SM -RA BR OVC005 15/15 A2980
RMK AO2 RAB44 SLP094 P0001 T01500150 $





000
SAUS41 KLWX 030737
MTRNAK
SPECI KNAK 030736Z AUTO 36006KT 1SM BR OVC005 16/15 A2980 RMK AO2
T01560150 $





000
SAUS41 KLWX 030735
MTRRYT
SPECI KRYT 030728Z AUTO 00000KT 3SM -RA BR OVC006 16/15 A2979 RMK
AO2 P0002 $





000
SAUS41 KLWX 030735
MTRRYT
SPECI KRYT 030728Z AUTO 00000KT 3SM -RA BR OVC006 16/15 A2979 RMK
AO2 P0002 $





000
SAUS41 KLWX 030723
MTRNAK
SPECI KNAK 030722Z AUTO 35006KT 1/2SM FG VV005 16/16 A2980 RMK AO2
T01610161 $





000
SAUS41 KLWX 030723
MTRNAK
SPECI KNAK 030722Z AUTO 35006KT 1/2SM FG VV005 16/16 A2980 RMK AO2
T01610161 $





000
SAUS41 KLWX 030719 COR
MTRRYT
SPECI KRYT 030709Z AUTO 00000KT 3/4SM -RA BR OVC006 16/15 A2980 RMK
AO2 P0001 $





000
SAUS41 KLWX 030718 COR
MTRRYT
SPECI KRYT 030709Z AUTO 00000KT 3/4SM -RA BR OVC006 16/15 A2980 RMK
AO2 P0001 $





000
SAUS41 KLWX 030710
MTRNAK
SPECI KNAK 030709Z AUTO 35004KT 1/4SM FG VV005 16/16 A2980 RMK AO2
T01610161 $





000
SAUS41 KLWX 030701 COR
MTRRYT
METAR KRYT 030653Z AUTO 00000KT 2SM -RA BR BKN006 OVC010 16/15 A2981
RMK AO2 SLP083 P0006 T01610150 $





000
SAUS41 KLWX 030701 COR
MTRRYT
METAR KRYT 030653Z AUTO 00000KT 2SM -RA BR BKN006 OVC010 16/15 A2981
RMK AO2 SLP083 P0006 T01610150 $





000
SAUS41 KLWX 030700
MTRRYT
METAR KRYT 030653Z AUTO 00000KT 2SM -RA BR BKN006 OVC010 16/15 A2981
RMK AO2 SLP083 P0006 T01610150 $





000
SAUS41 KLWX 030700
MTRRYT
METAR KRYT 030653Z AUTO 00000KT 2SM -RA BR BKN006 OVC010 16/15 A2981
RMK AO2 SLP083 P0006 T01610150 $





000
SAUS41 KLWX 030658 COR
MTRDMH
METAR KDMH 030654Z AUTO 16/14 A2982 RMK AO1 SLP098 T01560144





000
SAUS41 KLWX 030655
MTRNAK
METAR KNAK 030654Z AUTO 36003KT 1/2SM FG OVC006 16/16 A2980 RMK AO2
SLP092 T01610161 $





000
SAUS41 KLWX 030648
MTRNAK
SPECI KNAK 030647Z AUTO 00000KT 1 1/4SM BR OVC006 16/16 A2980 RMK
AO2 T01610161 $





000
SAUS41 KLWX 030647
MTRRYT
SPECI KRYT 030640Z AUTO 00000KT 1 1/4SM -RA BR BKN004 OVC008 16/15
A2981 RMK AO2 P0005 $





000
SAUS41 KLWX 030647
MTRRYT
SPECI KRYT 030640Z AUTO 00000KT 1 1/4SM -RA BR BKN004 OVC008 16/15
A2981 RMK AO2 P0005 $





000
SAUS41 KLWX 030647 COR
MTRRYT
SPECI KRYT 030640Z AUTO 00000KT 1 1/4SM -RA BR BKN004 OVC008 16/15
A2981 RMK AO2 P0005 $





000
SAUS41 KLWX 030640
MTRNAK
SPECI KNAK 030638Z AUTO 00000KT 2SM BR OVC006 16/16 A2981 RMK AO2
T01610161 $





000
SAUS41 KLWX 030633
MTRRYT
SPECI KRYT 030626Z AUTO 00000KT 1 3/4SM -RA BR FEW003 OVC008 16/15
A2981 RMK AO2 VIS 3/4V4 P0004 $





000
SAUS41 KLWX 030621 COR
MTRRYT
SPECI KRYT 030613Z AUTO 00000KT 3SM -RA BR BKN003 OVC010 16/15 A2981
RMK AO2 P0003 $





000
SAUS41 KLWX 030620 COR
MTRRYT
SPECI KRYT 030613Z AUTO 00000KT 3SM -RA BR BKN003 OVC010 16/15 A2981
RMK AO2 P0003 $





000
SAUS41 KLWX 030601 COR
MTRRYT
METAR KRYT 030553Z AUTO 00000KT 2SM -RA BR OVC003 16/15 A2982 RMK
AO2 SLP091 P0002 60099 T01610150 10222 20161 55006 $





000
SAUS41 KLWX 030600
MTRRYT
METAR KRYT 030553Z AUTO 00000KT 2SM -RA BR OVC003 16/15 A2982 RMK
AO2 SLP091 P0002 60099 T01610150 10222 20161 55006 $





000
SAUS41 KLWX 030600
MTRRYT
METAR KRYT 030553Z AUTO 00000KT 2SM -RA BR OVC003 16/15 A2982 RMK
AO2 SLP091 P0002 60099 T01610150 10222 20161 55006 $





000
SAUS41 KLWX 030558 COR
MTRDMH
METAR KDMH 030554Z AUTO 16/14 A2983 RMK AO1 SLP101 60021 T01610144
10194 20161 58009





000
SAUS41 KLWX 030558 COR
MTRDMH
METAR KDMH 030554Z AUTO 16/14 A2983 RMK AO1 SLP101 60021 T01610144
10194 20161 58009





000
SAUS41 KLWX 030556
MTRNAK
METAR KNAK 030554Z AUTO 00000KT 3SM BR OVC009 17/16 A2982 RMK AO2
SLP100 6//// T01670161 10194 20161 56016 $





000
SAUS41 KLWX 030556
MTRNAK
METAR KNAK 030554Z AUTO 00000KT 3SM BR OVC009 17/16 A2982 RMK AO2
SLP100 6//// T01670161 10194 20161 56016 $





000
SAUS41 KLWX 030547 COR
MTRRYT
SPECI KRYT 030539Z AUTO 00000KT 3SM -RA BR OVC003 16/15 A2983 RMK
AO2 P0000 $





000
SAUS41 KLWX 030547 COR
MTRRYT
SPECI KRYT 030539Z AUTO 00000KT 3SM -RA BR OVC003 16/15 A2983 RMK
AO2 P0000 $





000
SAUS41 KLWX 030546
MTRRYT
SPECI KRYT 030539Z AUTO 00000KT 3SM -RA BR OVC003 16/15 A2983 RMK
AO2 P0000 $





000
SAUS41 KLWX 030546
MTRRYT
SPECI KRYT 030539Z AUTO 00000KT 3SM -RA BR OVC003 16/15 A2983 RMK
AO2 P0000 $





000
SAUS41 KLWX 030538 COR
MTRRYT
SPECI KRYT 030529Z AUTO 00000KT 2 1/2SM -RA BR OVC003 16/15 A2983
RMK AO2 P0000 $





000
SAUS41 KLWX 030537 COR
MTRRYT
SPECI KRYT 030529Z AUTO 00000KT 2 1/2SM -RA BR OVC003 16/15 A2983
RMK AO2 P0000 $





000
SAUS41 KLWX 030537
MTRRYT
SPECI KRYT 030529Z AUTO 00000KT 2 1/2SM -RA BR OVC003 16/15 A2983
RMK AO2 P0000 $





000
SAUS41 KLWX 030506
MTRNAK
SPECI KNAK 030505Z AUTO 00000KT 4SM BR BKN008 17/16 A2983 RMK AO2
T01670161 $





000
SAUS41 KLWX 030506
MTRNAK
SPECI KNAK 030505Z AUTO 00000KT 4SM BR BKN008 17/16 A2983 RMK AO2
T01670161 $





000
SAUS41 KLWX 030505
MTRRYT
SPECI KRYT 030501Z AUTO 03003KT 4SM -RA BR OVC003 16/15 A2984 RMK
AO2 P0000 $





000
SAUS41 KLWX 030505
MTRRYT
SPECI KRYT 030501Z AUTO 03003KT 4SM -RA BR OVC003 16/15 A2984 RMK
AO2 P0000 $





000
SAUS41 KLWX 030501 COR
MTRRYT
METAR KRYT 030453Z AUTO 06003KT 4SM -RA BR OVC005 16/15 A2984 RMK
AO2 RAB04 SLP096 P0003 T01610150 402670106 $





000
SAUS41 KLWX 030501 COR
MTRRYT
METAR KRYT 030453Z AUTO 06003KT 4SM -RA BR OVC005 16/15 A2984 RMK
AO2 RAB04 SLP096 P0003 T01610150 402670106 $





000
SAUS41 KLWX 030500
MTRRYT
METAR KRYT 030453Z AUTO 06003KT 4SM -RA BR OVC005 16/15 A2984 RMK
AO2 RAB04 SLP096 P0003 T01610150 402670106 $





000
SAUS41 KLWX 030500
MTRRYT
METAR KRYT 030453Z AUTO 06003KT 4SM -RA BR OVC005 16/15 A2984 RMK
AO2 RAB04 SLP096 P0003 T01610150 402670106 $





000
SAUS41 KLWX 030459 COR
MTRDMH
METAR KDMH 030454Z AUTO 17/15 A2985 RMK AO1 SLP107 T01670150
402060122





000
SAUS41 KLWX 030459 COR
MTRDMH
METAR KDMH 030454Z AUTO 17/15 A2985 RMK AO1 SLP107 T01670150
402060122





000
SAUS41 KLWX 030455
MTRNAK
METAR KNAK 030454Z AUTO 00000KT 4SM BR SCT008 16/16 A2983 RMK AO2
SLP102 T01610161 401940122 $





000
SAUS41 KLWX 030448
MTRNAK
SPECI KNAK 030447Z AUTO 00000KT 7SM FEW008 17/16 A2983 RMK AO2
T01670161 $





000
SAUS41 KLWX 030436 COR
MTRRYT
SPECI KRYT 030428Z AUTO 00000KT 3SM -RA BR BKN005 OVC095 16/15 A2985
RMK AO2 RAB04 P0001 $





000
SAUS41 KLWX 030435
MTRRYT
SPECI KRYT 030428Z AUTO 00000KT 3SM -RA BR BKN005 OVC095 16/15 A2985
RMK AO2 RAB04 P0001 $





000
SAUS41 KLWX 030423
MTRNAK
SPECI KNAK 030421Z AUTO 00000KT 5SM BR BKN008 OVC090 17/16 A2985 RMK
AO2 T01670161 $





000
SAUS41 KLWX 030403
MTRNAK
SPECI KNAK 030402Z AUTO 18003KT 3SM BR SCT007 BKN090 BKN110 16/16
A2985 RMK AO2 T01610161 $





000
SAUS41 KLWX 030401 COR
MTRRYT
METAR KRYT 030353Z AUTO 00000KT 5SM BR OVC007 17/15 A2984 RMK AO2
CIG 006V010 SLP100 T01670150 $





000
SAUS41 KLWX 030400 COR
MTRRYT
METAR KRYT 030353Z AUTO 00000KT 5SM BR OVC007 17/15 A2984 RMK AO2
CIG 006V010 SLP100 T01670150 $





000
SAUS41 KLWX 030358 COR
MTRDMH
METAR KDMH 030354Z AUTO 17/16 A2989 RMK AO1 SLP120 T01720156





000
SAUS41 KLWX 030356
MTRNAK
METAR KNAK 030354Z AUTO 13007KT 3SM BR BKN007 BKN090 BKN110 16/16
A2985 RMK AO2 SLP109 T01610156 $





000
SAUS41 KLWX 030344
MTRNAK
SPECI KNAK 030343Z AUTO 13007KT 5SM BR BKN007 BKN085 OVC110 16/16
A2985 RMK AO2 T01610161 $





000
SAUS41 KLWX 030323 COR
MTRRYT
SPECI KRYT 030315Z AUTO 07003KT 5SM BR BKN007 OVC019 17/16 A2985 RMK
AO2 $





000
SAUS41 KLWX 030321
MTRRYT
SPECI KRYT 030315Z AUTO 07003KT 5SM BR BKN007 OVC019 17/16 A2985 RMK
AO2 $





000
SAUS41 KLWX 030321
MTRRYT
SPECI KRYT 030315Z AUTO 07003KT 5SM BR BKN007 OVC019 17/16 A2985 RMK
AO2 $





000
SAUS41 KLWX 030317
MTRNAK
SPECI KNAK 030314Z AUTO 08006KT 5SM BR SCT008 17/17 A2986 RMK AO2
T01720167 $





000
SAUS41 KLWX 030314 COR
MTRRYT
SPECI KRYT 030306Z AUTO VRB03KT 5SM BR SCT007 OVC019 17/16 A2986 RMK
AO2 $





000
SAUS41 KLWX 030313
MTRRYT
SPECI KRYT 030306Z AUTO VRB03KT 5SM BR SCT007 OVC019 17/16 A2986 RMK
AO2 $





000
SAUS41 KLWX 030313 COR
MTRRYT
SPECI KRYT 030306Z AUTO VRB03KT 5SM BR SCT007 OVC019 17/16 A2986 RMK
AO2 $





000
SAUS41 KLWX 030301 COR
MTRRYT
METAR KRYT 030253Z AUTO 00000KT 5SM BR OVC019 17/15 A2987 RMK AO2
RAE30 SLP108 P0007 60094 T01670150 50018 $





000
SAUS41 KLWX 030300 COR
MTRRYT
METAR KRYT 030253Z AUTO 00000KT 5SM BR OVC019 17/15 A2987 RMK AO2
RAE30 SLP108 P0007 60094 T01670150 50018 $





000
SAUS41 KLWX 030258 COR
MTRDMH
METAR KDMH 030254Z AUTO 18/16 A2986 RMK AO1 SLP111 P0006 60021
T01780161 50009





000
SAUS41 KLWX 030255
MTRNAK
METAR KNAK 030254Z AUTO 05006KT 5SM BR BKN008 OVC100 17/17 A2987 RMK
AO2 RAE29 SLP116 6//// T01720167 50008 PNO $





000
SAUS41 KLWX 030252
MTRNAK
SPECI KNAK 030250Z AUTO 03004KT 5SM BR BKN008 OVC110 17/17 A2987 RMK
AO2 RAE29 PNO $





000
SAUS41 KLWX 030240
MTRNAK
SPECI KNAK 030239Z AUTO 06006KT 8SM SCT009 OVC100 17/17 A2986 RMK
AO2 RAE29 T01720167 PNO $





000
SAUS41 KLWX 030240
MTRNAK
SPECI KNAK 030239Z AUTO 06006KT 8SM SCT009 OVC100 17/17 A2986 RMK
AO2 RAE29 T01720167 PNO $





000
SAUS41 KLWX 030222 COR
MTRRYT
SPECI KRYT 030214Z AUTO 08004KT 4SM -RA BR BKN017 BKN028 OVC055
17/16 A2988 RMK AO2 P0007 $





000
SAUS41 KLWX 030221 COR
MTRRYT
SPECI KRYT 030214Z AUTO 08004KT 4SM -RA BR BKN017 BKN028 OVC055
17/16 A2988 RMK AO2 P0007 $





000
SAUS41 KLWX 030206
MTRNAK
SPECI KNAK 030205Z AUTO 32008KT 3SM -RA BR FEW017 BKN048 OVC100
18/17 A2986 RMK AO2 T01780167 PNO $





000
SAUS41 KLWX 030204 COR
MTRRYT
SPECI KRYT 030156Z AUTO 08005KT 2SM +RA BR FEW006 BKN026 OVC060
17/16 A2987 RMK AO2 PRESFR P0001 $





000
SAUS41 KLWX 030203
MTRRYT
SPECI KRYT 030156Z AUTO 08005KT 2SM +RA BR FEW006 BKN026 OVC060
17/16 A2987 RMK AO2 PRESFR P0001 $





000
SAUS41 KLWX 030203
MTRRYT
SPECI KRYT 030156Z AUTO 08005KT 2SM +RA BR FEW006 BKN026 OVC060
17/16 A2987 RMK AO2 PRESFR P0001 $





000
SAUS41 KLWX 030158 COR
MTRDMH
METAR KDMH 030154Z AUTO 18/17 A2989 RMK AO1 SLP120 P0008 T01830172





000
SAUS41 KLWX 030158 COR
MTRDMH
METAR KDMH 030154Z AUTO 18/17 A2989 RMK AO1 SLP120 P0008 T01830172





000
SAUS41 KLWX 030157
MTRNAK
METAR KNAK 030154Z AUTO 26008G15KT 1 1/2SM +RA BR FEW016 BKN032
OVC080 18/17 A2991 RMK AO2 SLP129 T01830167 PNO $





000
SAUS41 KLWX 030154
MTRNAK
SPECI KNAK 030152Z AUTO 27008G15KT 1 3/4SM +RA BR FEW016 BKN032
OVC075 18/17 A2991 RMK AO2 PNO $





000
SAUS41 KLWX 030142
MTRNAK
SPECI KNAK 030141Z AUTO 32008KT 3SM -RA BR FEW016 BKN037 OVC080
18/16 A2988 RMK AO2 T01780161 PNO $





000
SAUS41 KLWX 030135 COR
MTRRYT
SPECI KRYT 030133Z AUTO 00000KT 3/4SM +TSRA BR SCT008 BKN016 OVC047
17/16 A2991 RMK AO2 TSB06RAB0057 PRESRR P0049 $





000
SAUS41 KLWX 030134 COR
MTRRYT
SPECI KRYT 030133Z AUTO 00000KT 3/4SM +TSRA BR SCT008 BKN016 OVC047
17/16 A2991 RMK AO2 TSB06RAB0057 PRESRR P0049 $





000
SAUS41 KLWX 030129
MTRNAK
SPECI KNAK 030128Z AUTO 13006G15KT 1 1/2SM +RA BR SCT014 SCT021
OVC043 17/16 A2986 RMK AO2 T01720161 PNO $





000
SAUS41 KLWX 030124
MTRNAK
SPECI KNAK 030123Z AUTO 13011G15KT 2 1/2SM +RA BR SCT014 BKN021
OVC090 18/18 A2986 RMK AO2 P0000 T01830178





000
SAUS41 KLWX 030120 COR
MTRRYT
SPECI KRYT 030118Z AUTO 08003KT 2 1/2SM +TSRA BR BKN028 BKN070
OVC090 18/16 A2984 RMK AO2 TSB06RAB0057 P0015 $





000
SAUS41 KLWX 030119 COR
MTRRYT
SPECI KRYT 030118Z AUTO 08003KT 2 1/2SM +TSRA BR BKN028 BKN070
OVC090 18/16 A2984 RMK AO2 TSB06RAB0057 P0015 $





000
SAUS41 KLWX 030119
MTRRYT
SPECI KRYT 030118Z AUTO 08003KT 2 1/2SM +TSRA BR BKN028 BKN070
OVC090 18/16 A2984 RMK AO2 TSB06RAB0057 P0015 $





000
SAUS41 KLWX 030119 COR
MTRRYT
SPECI KRYT 030118Z AUTO 08003KT 2 1/2SM +TSRA BR BKN028 BKN070
OVC090 18/16 A2984 RMK AO2 TSB06RAB0057 P0015 $





000
SAUS41 KLWX 030119
MTRRYT
SPECI KRYT 030118Z AUTO 08003KT 2 1/2SM +TSRA BR BKN028 BKN070
OVC090 18/16 A2984 RMK AO2 TSB06RAB0057 P0015 $





000
SAUS41 KLWX 030116
MTRNAK
SPECI KNAK 030115Z AUTO 23007KT 6SM -RA BR BKN014 BKN023 OVC095
19/18 A2989 RMK AO2 PRESRR P0000 T01940183





000
SAUS41 KLWX 030116
MTRNAK
SPECI KNAK 030115Z AUTO 23007KT 6SM -RA BR BKN014 BKN023 OVC095
19/18 A2989 RMK AO2 PRESRR P0000 T01940183





000
SAUS41 KLWX 030111
MTRNAK
SPECI KNAK 030109Z AUTO VRB04KT 5SM -RA BR SCT019 BKN075 OVC090
19/18 A2987 RMK AO2 PRESRR P0000 T01890178





000
SAUS41 KLWX 030102
MTRNAK
SPECI KNAK 030101Z AUTO 36004KT 2 1/2SM -RA BR BKN090 OVC110 18/18
A2984 RMK AO2 P0000 T01830178





000
SAUS41 KLWX 030102
MTRNAK
SPECI KNAK 030101Z AUTO 36004KT 2 1/2SM -RA BR BKN090 OVC110 18/18
A2984 RMK AO2 P0000 T01830178





000
SAUS41 KLWX 030101 COR
MTRRYT
METAR KRYT 030053Z AUTO 06007KT 7SM SCT028 BKN080 OVC095 19/16 A2984
RMK AO2 SLP098 T01940156 $





000
SAUS41 KLWX 030100 COR
MTRRYT
METAR KRYT 030053Z AUTO 06007KT 7SM SCT028 BKN080 OVC095 19/16 A2984
RMK AO2 SLP098 T01940156 $





000
SAUS41 KLWX 030100
MTRRYT
METAR KRYT 030053Z AUTO 06007KT 7SM SCT028 BKN080 OVC095 19/16 A2984
RMK AO2 SLP098 T01940156 $





000
SAUS41 KLWX 030058 COR
MTRDMH
METAR KDMH 030054Z AUTO 18/17 A2982 RMK AO1 PRESFR SLP096 P0007
T01830167





000
SAUS41 KLWX 030058 COR
MTRDMH
METAR KDMH 030054Z AUTO 18/17 A2982 RMK AO1 PRESFR SLP096 P0007
T01830167





000
SAUS41 KLWX 030055
MTRNAK
METAR KNAK 030054Z AUTO 24003KT 3SM RA BR FEW075 OVC095 19/18 A2984
RMK AO2 RAB33 SLP107 P0000 T01940178





000
SAUS41 KLWX 030055
MTRNAK
METAR KNAK 030054Z AUTO 24003KT 3SM RA BR FEW075 OVC095 19/18 A2984
RMK AO2 RAB33 SLP107 P0000 T01940178





000
SAUS41 KLWX 030001 COR
MTRRYT
METAR KRYT 022353Z AUTO 04003KT 10SM FEW075 SCT090 BKN110 22/17
A2981 RMK AO2 SLP089 T02170167 10267 20217 56005 $





000
SAUS41 KLWX 030000 COR
MTRRYT
METAR KRYT 022353Z AUTO 04003KT 10SM FEW075 SCT090 BKN110 22/17
A2981 RMK AO2 SLP089 T02170167 10267 20217 56005 $





000
SAUS41 KLWX 030000 COR
MTRRYT
METAR KRYT 022353Z AUTO 04003KT 10SM FEW075 SCT090 BKN110 22/17
A2981 RMK AO2 SLP089 T02170167 10267 20217 56005 $





000
SAUS41 KLWX 022358 COR
MTRDMH
METAR KDMH 022354Z AUTO 19/17 A2983 RMK AO1 SLP101 T01940167 10206
20172 56015





000
SAUS41 KLWX 022358 COR
MTRDMH
METAR KDMH 022354Z AUTO 19/17 A2983 RMK AO1 SLP101 T01940167 10206
20172 56015





000
SAUS41 KLWX 022356
MTRNAK
METAR KNAK 022354Z AUTO 13006KT 10SM FEW075 FEW090 SCT110 17/16
A2982 RMK AO2 PRESFR SLP099 T01720161 10194 20150 58015





000
SAUS41 KLWX 022356
MTRNAK
METAR KNAK 022354Z AUTO 13006KT 10SM FEW075 FEW090 SCT110 17/16
A2982 RMK AO2 PRESFR SLP099 T01720161 10194 20150 58015





000
SAUS41 KLWX 022302 COR
MTRRYT
METAR KRYT 022253Z AUTO 23003KT 10SM CLR 24/16 A2982 RMK AO2 SLP092
T02390156 $





000
SAUS41 KLWX 022302 COR
MTRRYT
METAR KRYT 022253Z AUTO 23003KT 10SM CLR 24/16 A2982 RMK AO2 SLP092
T02390156 $





000
SAUS41 KLWX 022301
MTRRYT
METAR KRYT 022253Z AUTO 23003KT 10SM CLR 24/16 A2982 RMK AO2 SLP092
T02390156 $





000
SAUS41 KLWX 022301
MTRRYT
METAR KRYT 022253Z AUTO 23003KT 10SM CLR 24/16 A2982 RMK AO2 SLP092
T02390156 $





000
SAUS41 KLWX 022258 COR
MTRDMH
METAR KDMH 022254Z AUTO 21/16 A2984 RMK AO1 SLP105 T02060161





000
SAUS41 KLWX 022258 COR
MTRDMH
METAR KDMH 022254Z AUTO 21/16 A2984 RMK AO1 SLP105 T02060161





000
SAUS41 KLWX 022255
MTRNAK
METAR KNAK 022254Z AUTO 13004KT 10SM FEW110 19/17 A2984 RMK AO2
SLP107 T01890167





000
SAUS41 KLWX 022201 COR
MTRRYT
METAR KRYT 022153Z AUTO 20005KT 10SM CLR 25/16 A2981 RMK AO2 SLP088
T02500156 $





000
SAUS41 KLWX 022200
MTRRYT
METAR KRYT 022153Z AUTO 20005KT 10SM CLR 25/16 A2981 RMK AO2 SLP088
T02500156 $





000
SAUS41 KLWX 022157 COR
MTRDMH
METAR KDMH 022154Z AUTO 20/15 A2983 RMK AO1 SLP102 T02000150





000
SAUS41 KLWX 022157 COR
MTRDMH
METAR KDMH 022154Z AUTO 20/15 A2983 RMK AO1 SLP102 T02000150





000
SAUS41 KLWX 022155
MTRNAK
METAR KNAK 022154Z AUTO 13006KT 10SM CLR 19/17 A2985 RMK AO2 SLP109
T01890167





000
SAUS41 KLWX 022058 COR
MTRDMH
METAR KDMH 022054Z AUTO 21/15 A2988 RMK AO1 SLP116 T02060150 56017





000
SAUS41 KLWX 022055
MTRNAK
METAR KNAK 022054Z AUTO 12008KT 10SM CLR 18/16 A2986 RMK AO2 SLP114
T01780161 56018





000
SAUS41 KLWX 022054
MTRRYT
METAR KRYT 022053Z AUTO VRB04KT 10SM CLR 26/09 A2983 RMK AO2 SLP093
T02610094 56012 $





000
SAUS41 KLWX 022054
MTRRYT
METAR KRYT 022053Z AUTO VRB04KT 10SM CLR 26/09 A2983 RMK AO2 SLP093
T02610094 56012 $





000
SAUS41 KLWX 021958 COR
MTRDMH
METAR KDMH 021954Z AUTO 19/15 A2989 RMK AO1 SLP121 T01940150





000
SAUS41 KLWX 021955
MTRNAK
METAR KNAK 021954Z AUTO 14006KT 6SM BR CLR 17/16 A2987 RMK AO2
SLP117 T01720156





000
SAUS41 KLWX 021902 COR
MTRRYT
METAR KRYT 021853Z AUTO VRB03KT 10SM FEW043 SCT075 BKN090 25/14
A2985 RMK AO2 SLP101 T02500144 $





000
SAUS41 KLWX 021901
MTRRYT
METAR KRYT 021853Z AUTO VRB03KT 10SM FEW043 SCT075 BKN090 25/14
A2985 RMK AO2 SLP101 T02500144 $





000
SAUS41 KLWX 021858 COR
MTRDMH
METAR KDMH 021854Z AUTO 19/15 A2990 RMK AO1 SLP125 T01940150





000
SAUS41 KLWX 021855
MTRNAK
METAR KNAK 021854Z AUTO 14010KT 4SM BR CLR 16/15 A2990 RMK AO2
SLP127 T01610150





000
SAUS41 KLWX 021815
MTRNAK
SPECI KNAK 021814Z AUTO 13009KT 5SM BR SCT019 16/14 A2991 RMK AO2
T01560144 $





000
SAUS41 KLWX 021815
MTRNAK
SPECI KNAK 021814Z AUTO 13009KT 5SM BR SCT019 16/14 A2991 RMK AO2
T01560144 $





000
SAUS41 KLWX 021801 COR
MTRRYT
METAR KRYT 021753Z AUTO VRB03KT 10SM FEW090 23/16 A2986 RMK AO2
SLP106 T02280156 10228 20111 58012 $





000
SAUS41 KLWX 021801 COR
MTRRYT
METAR KRYT 021753Z AUTO VRB03KT 10SM FEW090 23/16 A2986 RMK AO2
SLP106 T02280156 10228 20111 58012 $





000
SAUS41 KLWX 021800
MTRRYT
METAR KRYT 021753Z AUTO VRB03KT 10SM FEW090 23/16 A2986 RMK AO2
SLP106 T02280156 10228 20111 58012 $





000
SAUS41 KLWX 021800
MTRRYT
METAR KRYT 021753Z AUTO VRB03KT 10SM FEW090 23/16 A2986 RMK AO2
SLP106 T02280156 10228 20111 58012 $





000
SAUS41 KLWX 021758 COR
MTRDMH
METAR KDMH 021754Z AUTO 17/14 A2993 RMK AO1 SLP133 T01720144 10172
20122 58014





000
SAUS41 KLWX 021758 COR
MTRDMH
METAR KDMH 021754Z AUTO 17/14 A2993 RMK AO1 SLP133 T01720144 10172
20122 58014





000
SAUS41 KLWX 021755
MTRNAK
METAR KNAK 021754Z AUTO 13009KT 4SM BR SCT011 BKN018 15/14 A2992 RMK
AO2 SLP132 T01500144 10156 20128 56015 $





000
SAUS41 KLWX 021755
MTRNAK
METAR KNAK 021754Z AUTO 13009KT 4SM BR SCT011 BKN018 15/14 A2992 RMK
AO2 SLP132 T01500144 10156 20128 56015 $





000
SAUS41 KLWX 021752
MTRNAK
SPECI KNAK 021751Z AUTO 13008KT 3SM BR SCT011 BKN018 15/14 A2992 RMK
AO2 $





000
SAUS41 KLWX 021741
MTRNAK
SPECI KNAK 021740Z AUTO 12008KT 2 1/2SM BR OVC011 15/14 A2992 RMK
AO2 T01500139 $





000
SAUS41 KLWX 021732
MTRNAK
SPECI KNAK 021731Z AUTO 12008KT 2SM BR OVC009 14/14 A2992 RMK AO2
T01440139 $





000
SAUS41 KLWX 021658 COR
MTRDMH
METAR KDMH 021654Z AUTO 15/13 A2994 RMK AO1 SLP138 T01500128





000
SAUS41 KLWX 021658 COR
MTRDMH
METAR KDMH 021654Z AUTO 15/13 A2994 RMK AO1 SLP138 T01500128





000
SAUS41 KLWX 021655
MTRNAK
METAR KNAK 021654Z AUTO VRB04KT 5SM BR OVC008 15/14 A2992 RMK AO2
SLP134 T01500139 $





000
SAUS41 KLWX 021655
MTRNAK
METAR KNAK 021654Z AUTO VRB04KT 5SM BR OVC008 15/14 A2992 RMK AO2
SLP134 T01500139 $





000
SAUS41 KLWX 021601 COR
MTRRYT
METAR KRYT 021553Z AUTO 05004KT 10SM CLR 19/15 A2990 RMK AO2 SLP122
T01940150 $





000
SAUS41 KLWX 021600
MTRRYT
METAR KRYT 021553Z AUTO 05004KT 10SM CLR 19/15 A2990 RMK AO2 SLP122
T01940150 $





000
SAUS41 KLWX 021558 COR
MTRDMH
METAR KDMH 021554Z AUTO 14/13 A2996 RMK AO1 SLP144 T01390128





000
SAUS41 KLWX 021556
MTRNAK
METAR KNAK 021554Z AUTO 13008KT 4SM BR OVC008 14/13 A2995 RMK AO2
SLP143 T01390133 $





000
SAUS41 KLWX 021501 COR
MTRRYT
METAR KRYT 021453Z AUTO 03006KT 10SM CLR 17/14 A2990 RMK AO2 SLP122
T01670139 58010 $





000
SAUS41 KLWX 021500
MTRRYT
METAR KRYT 021453Z AUTO 03006KT 10SM CLR 17/14 A2990 RMK AO2 SLP122
T01670139 58010 $





000
SAUS41 KLWX 021458 COR
MTRDMH
METAR KDMH 021454Z AUTO 13/12 A2997 RMK AO1 SLP148 T01330122 56016





000
SAUS41 KLWX 021458 COR
MTRDMH
METAR KDMH 021454Z AUTO 13/12 A2997 RMK AO1 SLP148 T01330122 56016





000
SAUS41 KLWX 021456
MTRNAK
METAR KNAK 021454Z AUTO 11006KT 4SM BR OVC007 13/13 A2996 RMK AO2
SLP147 T01330128 58009 $





000
SAUS41 KLWX 021423
MTRRYT
SPECI KRYT 021416Z AUTO 00000KT 10SM SCT010 17/14 A2991 RMK AO2 $





000
SAUS41 KLWX 021423
MTRRYT
SPECI KRYT 021416Z AUTO 00000KT 10SM SCT010 17/14 A2991 RMK AO2 $





000
SAUS41 KLWX 021415 COR
MTRRYT
SPECI KRYT 021407Z AUTO VRB03KT 10SM BKN010 17/14 A2991 RMK AO2 CIG
008V012 $





000
SAUS41 KLWX 021414 COR
MTRRYT
SPECI KRYT 021407Z AUTO VRB03KT 10SM BKN010 17/14 A2991 RMK AO2 CIG
008V012 $





000
SAUS41 KLWX 021414
MTRRYT
SPECI KRYT 021407Z AUTO VRB03KT 10SM BKN010 17/14 A2991 RMK AO2 CIG
008V012 $





000
SAUS41 KLWX 021414 COR
MTRRYT
SPECI KRYT 021407Z AUTO VRB03KT 10SM BKN010 17/14 A2991 RMK AO2 CIG
008V012 $





000
SAUS41 KLWX 021414
MTRRYT
SPECI KRYT 021407Z AUTO VRB03KT 10SM BKN010 17/14 A2991 RMK AO2 CIG
008V012 $





000
SAUS41 KLWX 021413
MTRNAK
SPECI KNAK 021412Z AUTO 14008KT 3SM BR OVC005 13/13 A2996 RMK AO2
T01330128 $





000
SAUS41 KLWX 021413
MTRNAK
SPECI KNAK 021412Z AUTO 14008KT 3SM BR OVC005 13/13 A2996 RMK AO2
T01330128 $





000
SAUS41 KLWX 021402
MTRNAK
SPECI KNAK 021401Z AUTO 14007KT 2 1/2SM BR OVC005 13/13 A2996 RMK
AO2 T01280128 $





000
SAUS41 KLWX 021401 COR
MTRRYT
METAR KRYT 021353Z AUTO 02003KT 10SM FEW007 16/13 A2991 RMK AO2
SLP128 T01610133 $





000
SAUS41 KLWX 021400 COR
MTRRYT
METAR KRYT 021353Z AUTO 02003KT 10SM FEW007 16/13 A2991 RMK AO2
SLP128 T01610133 $





000
SAUS41 KLWX 021359
MTRRYT
METAR KRYT 021353Z AUTO 02003KT 10SM FEW007 16/13 A2991 RMK AO2
SLP128 T01610133 $





000
SAUS41 KLWX 021358 COR
MTRDMH
METAR KDMH 021354Z AUTO 13/12 A2998 RMK AO1 SLP151 T01330117





000
SAUS41 KLWX 021355
MTRNAK
METAR KNAK 021354Z AUTO 14007KT 1 3/4SM BR OVC005 13/13 A2997 RMK
AO2 SLP150 T01280128 $





000
SAUS41 KLWX 021337
MTRRYT
SPECI KRYT 021336Z AUTO 00000KT 10SM SCT005 SCT014 15/13 A2991 RMK
AO2 $





000
SAUS41 KLWX 021334
MTRNAK
SPECI KNAK 021333Z AUTO 15007KT 1 1/2SM BR OVC006 13/13 A2995 RMK
AO2 T01280128 $





000
SAUS41 KLWX 021310
MTRRYT
SPECI KRYT 021303Z AUTO 00000KT 9SM OVC005 13/12 A2994 RMK AO2 $





000
SAUS41 KLWX 021301 COR
MTRRYT
METAR KRYT 021253Z AUTO 00000KT 5SM BR OVC003 12/12 A2994 RMK AO2
SLP138 T01220117 $





000
SAUS41 KLWX 021300
MTRRYT
METAR KRYT 021253Z AUTO 00000KT 5SM BR OVC003 12/12 A2994 RMK AO2
SLP138 T01220117 $





000
SAUS41 KLWX 021258 COR
MTRDMH
METAR KDMH 021254Z AUTO 13/12 A3000 RMK AO1 SLP157 T01280122





000
SAUS41 KLWX 021255
MTRNAK
METAR KNAK 021254Z AUTO 13003KT 2SM BR OVC007 13/12 A2999 RMK AO2
SLP157 T01280122 $





000
SAUS41 KLWX 021242
MTRRYT
SPECI KRYT 021235Z AUTO 00000KT 3SM BR OVC003 12/11 A2994 RMK AO2 $





000
SAUS41 KLWX 021221 COR
MTRRYT
SPECI KRYT 021213Z AUTO 00000KT 1 3/4SM BR BKN003 OVC011 11/11 A2993
RMK AO2 $





000
SAUS41 KLWX 021221 COR
MTRRYT
SPECI KRYT 021213Z AUTO 00000KT 1 3/4SM BR BKN003 OVC011 11/11 A2993
RMK AO2 $





000
SAUS41 KLWX 021220
MTRRYT
SPECI KRYT 021213Z AUTO 00000KT 1 3/4SM BR BKN003 OVC011 11/11 A2993
RMK AO2 $





000
SAUS41 KLWX 021220
MTRRYT
SPECI KRYT 021213Z AUTO 00000KT 1 3/4SM BR BKN003 OVC011 11/11 A2993
RMK AO2 $





000
SAUS41 KLWX 021211 COR
MTRRYT
SPECI KRYT 021209Z AUTO 00000KT 2 1/2SM BR SCT003 BKN006 OVC013
11/11 A2993 RMK AO2 $





000
SAUS41 KLWX 021211 COR
MTRRYT
SPECI KRYT 021209Z AUTO 00000KT 2 1/2SM BR SCT003 BKN006 OVC013
11/11 A2993 RMK AO2 $





000
SAUS41 KLWX 021207
MTRNAK
SPECI KNAK 021206Z AUTO 00000KT 2SM BR OVC006 13/12 A2999 RMK AO2
T01280122 $





000
SAUS41 KLWX 021207
MTRNAK
SPECI KNAK 021206Z AUTO 00000KT 2SM BR OVC006 13/12 A2999 RMK AO2
T01280122 $





000
SAUS41 KLWX 021158 COR
MTRDMH
METAR KDMH 021154Z AUTO 12/12 A3002 RMK AO1 SLP164 70016 T01220117
10128 20122 53017





000
SAUS41 KLWX 021158 COR
MTRDMH
METAR KDMH 021154Z AUTO 12/12 A3002 RMK AO1 SLP164 70016 T01220117
10128 20122 53017





000
SAUS41 KLWX 021155
MTRNAK
METAR KNAK 021154Z AUTO 06003KT 1 3/4SM BR OVC006 13/12 A2999 RMK
AO2 SLP157 60001 70022 T01280122 10128 20122 53013 $





000
SAUS41 KLWX 021142
MTRRYT
SPECI KRYT 021141Z AUTO 00000KT 4SM -RA BR BKN005 OVC009 11/11 A2995
RMK AO2 P0002 $





000
SAUS41 KLWX 021142
MTRRYT
SPECI KRYT 021141Z AUTO 00000KT 4SM -RA BR BKN005 OVC009 11/11 A2995
RMK AO2 P0002 $





000
SAUS41 KLWX 021141 COR
MTRRYT
SPECI KRYT 021133Z AUTO 00000KT 2 1/2SM -RA BR OVC005 11/11 A2997
RMK AO2 P0001 $





000
SAUS41 KLWX 021140
MTRRYT
SPECI KRYT 021133Z AUTO 00000KT 2 1/2SM -RA BR OVC005 11/11 A2997
RMK AO2 P0001 $





000
SAUS41 KLWX 021134
MTRNAK
SPECI KNAK 021133Z AUTO 09003KT 1 1/2SM BR OVC007 13/12 A2998 RMK
AO2 T01280122 $





000
SAUS41 KLWX 021130 COR
MTRRYT
SPECI KRYT 021122Z AUTO 27004KT 2 1/2SM -RA BR OVC003 11/11 A2996
RMK AO2 P0001 $





000
SAUS41 KLWX 021130 COR
MTRRYT
SPECI KRYT 021122Z AUTO 27004KT 2 1/2SM -RA BR OVC003 11/11 A2996
RMK AO2 P0001 $





000
SAUS41 KLWX 021129
MTRRYT
SPECI KRYT 021122Z AUTO 27004KT 2 1/2SM -RA BR OVC003 11/11 A2996
RMK AO2 P0001 $





000
SAUS41 KLWX 021121 COR
MTRRYT
SPECI KRYT 021113Z AUTO 00000KT 1 3/4SM -RA BR OVC003 11/11 A2994
RMK AO2 P0001 $





000
SAUS41 KLWX 021120
MTRRYT
SPECI KRYT 021113Z AUTO 00000KT 1 3/4SM -RA BR OVC003 11/11 A2994
RMK AO2 P0001 $





000
SAUS41 KLWX 021115
MTRNAK
SPECI KNAK 021114Z AUTO 11007KT 2 1/2SM BR OVC006 13/12 A2996 RMK
AO2 T01280122 $





000
SAUS41 KLWX 021115
MTRNAK
SPECI KNAK 021114Z AUTO 11007KT 2 1/2SM BR OVC006 13/12 A2996 RMK
AO2 T01280122 $





000
SAUS41 KLWX 021105
MTRNAK
SPECI KNAK 021104Z AUTO 11008KT 1 3/4SM BR OVC006 13/12 A2996 RMK
AO2 T01280122 $





000
SAUS41 KLWX 021101 COR
MTRRYT
METAR KRYT 021053Z AUTO 00000KT 1/2SM -RA FG VV002 11/11 A2995 RMK
AO2 RAB45 SLP145 P0000 T01060106 $





000
SAUS41 KLWX 021100 COR
MTRRYT
METAR KRYT 021053Z AUTO 00000KT 1/2SM -RA FG VV002 11/11 A2995 RMK
AO2 RAB45 SLP145 P0000 T01060106 $





000
SAUS41 KLWX 021100 COR
MTRRYT
METAR KRYT 021053Z AUTO 00000KT 1/2SM -RA FG VV002 11/11 A2995 RMK
AO2 RAB45 SLP145 P0000 T01060106 $





000
SAUS41 KLWX 021059
MTRRYT
METAR KRYT 021053Z AUTO 00000KT 1/2SM -RA FG VV002 11/11 A2995 RMK
AO2 RAB45 SLP145 P0000 T01060106 $





000
SAUS41 KLWX 021058 COR
MTRDMH
METAR KDMH 021054Z AUTO 12/11 A2996 RMK AO1 SLP146 T01220111





000
SAUS41 KLWX 021058 COR
MTRDMH
METAR KDMH 021054Z AUTO 12/11 A2996 RMK AO1 SLP146 T01220111





000
SAUS41 KLWX 021055
MTRNAK
METAR KNAK 021054Z AUTO 11006KT 2 1/2SM BR OVC006 13/12 A2997 RMK
AO2 SLP149 T01280122





000
SAUS41 KLWX 021040
MTRRYT
SPECI KRYT 021033Z AUTO 26004KT 1/4SM FG VV002 11/11 A2995 RMK AO2 $





000
SAUS41 KLWX 021018
MTRRYT
SPECI KRYT 021011Z AUTO 00000KT 1/2SM FG VV002 11/10 A2993 RMK AO2 $





000
SAUS41 KLWX 021002 COR
MTRRYT
METAR KRYT 020953Z AUTO 00000KT 1/4SM FG VV002 11/11 A2992 RMK AO2
SLP133 T01060106 $





000
SAUS41 KLWX 021001 COR
MTRRYT
METAR KRYT 020953Z AUTO 00000KT 1/4SM FG VV002 11/11 A2992 RMK AO2
SLP133 T01060106 $





000
SAUS41 KLWX 020958 COR
MTRDMH
METAR KDMH 020954Z AUTO 12/12 A2997 RMK AO1 SLP149 T01220117





000
SAUS41 KLWX 020955
MTRNAK
METAR KNAK 020954Z AUTO 11004KT 3SM BR OVC007 13/12 A2996 RMK AO2
SLP148 T01280122





000
SAUS41 KLWX 020949
MTRRYT
SPECI KRYT 020943Z AUTO 00000KT 1/2SM FG VV002 11/11 A2992 RMK AO2 $





000
SAUS41 KLWX 020901 COR
MTRRYT
METAR KRYT 020853Z AUTO 00000KT 1/4SM FG VV002 11/11 A2994 RMK AO2
SLP138 60001 T01060106 56013 $





000
SAUS41 KLWX 020900
MTRRYT
METAR KRYT 020853Z AUTO 00000KT 1/4SM FG VV002 11/11 A2994 RMK AO2
SLP138 60001 T01060106 56013 $





000
SAUS41 KLWX 020858 COR
MTRDMH
METAR KDMH 020854Z AUTO 12/12 A2996 RMK AO1 SLP146 T01220117 56018





000
SAUS41 KLWX 020856
MTRNAK
METAR KNAK 020854Z AUTO 10005KT 9SM OVC008 13/12 A2995 RMK AO2
SLP144 60001 T01280117 55017





000
SAUS41 KLWX 020758 COR
MTRDMH
METAR KDMH 020754Z AUTO 12/11 A2996 RMK AO1 SLP146 T01220111





000
SAUS41 KLWX 020755
MTRNAK
METAR KNAK 020754Z AUTO 06007KT 6SM BR OVC006 12/12 A2994 RMK AO2
SLP142 T01220117





000
SAUS41 KLWX 020718 COR
MTRRYT
SPECI KRYT 020716Z AUTO 01003KT 1/4SM FG VV002 11/11 A2994 RMK AO2
P0001 $





000
SAUS41 KLWX 020717 COR
MTRRYT
SPECI KRYT 020716Z AUTO 01003KT 1/4SM FG VV002 11/11 A2994 RMK AO2
P0001 $





000
SAUS41 KLWX 020710
MTRRYT
SPECI KRYT 020703Z AUTO 00000KT 1/2SM FG VV002 11/11 A2995 RMK AO2 $





000
SAUS41 KLWX 020710
MTRRYT
SPECI KRYT 020703Z AUTO 00000KT 1/2SM FG VV002 11/11 A2995 RMK AO2 $





000
SAUS41 KLWX 020701 COR
MTRRYT
METAR KRYT 020653Z AUTO 00000KT 1/4SM FG VV002 11/11 A2995 RMK AO2
RAB16E28 SLP145 P0000 T01060106 $





000
SAUS41 KLWX 020700 COR
MTRRYT
METAR KRYT 020653Z AUTO 00000KT 1/4SM FG VV002 11/11 A2995 RMK AO2
RAB16E28 SLP145 P0000 T01060106 $





000
SAUS41 KLWX 020658 COR
MTRDMH
METAR KDMH 020654Z AUTO 12/11 A3000 RMK AO1 SLP159 T01220111





000
SAUS41 KLWX 020655
MTRNAK
METAR KNAK 020654Z AUTO 06005KT 6SM BR OVC007 12/12 A2996 RMK AO2
RAE22 SLP146 P0001 T01220122





000
SAUS41 KLWX 020655
MTRNAK
METAR KNAK 020654Z AUTO 06005KT 6SM BR OVC007 12/12 A2996 RMK AO2
RAE22 SLP146 P0001 T01220122





000
SAUS41 KLWX 020639 COR
MTRRYT
SPECI KRYT 020631Z AUTO 00000KT 1/4SM FG VV002 11/11 A2995 RMK AO2
RAB16E28 P0000 $





000
SAUS41 KLWX 020638 COR
MTRRYT
SPECI KRYT 020631Z AUTO 00000KT 1/4SM FG VV002 11/11 A2995 RMK AO2
RAB16E28 P0000 $





000
SAUS41 KLWX 020638 COR
MTRRYT
SPECI KRYT 020631Z AUTO 00000KT 1/4SM FG VV002 11/11 A2995 RMK AO2
RAB16E28 P0000 $





000
SAUS41 KLWX 020637
MTRRYT
SPECI KRYT 020631Z AUTO 00000KT 1/4SM FG VV002 11/11 A2995 RMK AO2
RAB16E28 P0000 $





000
SAUS41 KLWX 020637
MTRRYT
SPECI KRYT 020631Z AUTO 00000KT 1/4SM FG VV002 11/11 A2995 RMK AO2
RAB16E28 P0000 $





000
SAUS41 KLWX 020630 COR
MTRRYT
SPECI KRYT 020622Z AUTO 01003KT 1/2SM -RA FG VV002 11/11 A2996 RMK
AO2 RAB16 P0000 $





000
SAUS41 KLWX 020630 COR
MTRRYT
SPECI KRYT 020622Z AUTO 01003KT 1/2SM -RA FG VV002 11/11 A2996 RMK
AO2 RAB16 P0000 $





000
SAUS41 KLWX 020629 COR
MTRRYT
SPECI KRYT 020622Z AUTO 01003KT 1/2SM -RA FG VV002 11/11 A2996 RMK
AO2 RAB16 P0000 $





000
SAUS41 KLWX 020629 COR
MTRRYT
SPECI KRYT 020622Z AUTO 01003KT 1/2SM -RA FG VV002 11/11 A2996 RMK
AO2 RAB16 P0000 $





000
SAUS41 KLWX 020601 COR
MTRRYT
METAR KRYT 020553Z AUTO 00000KT 1/4SM FG VV001 11/11 A2997 RMK AO2
RAE05 SLP151 P0000 60002 T01110106 10111 20111 55017 $





000
SAUS41 KLWX 020600
MTRRYT
METAR KRYT 020553Z AUTO 00000KT 1/4SM FG VV001 11/11 A2997 RMK AO2
RAE05 SLP151 P0000 60002 T01110106 10111 20111 55017 $





000
SAUS41 KLWX 020600
MTRRYT
METAR KRYT 020553Z AUTO 00000KT 1/4SM FG VV001 11/11 A2997 RMK AO2
RAE05 SLP151 P0000 60002 T01110106 10111 20111 55017 $





000
SAUS41 KLWX 020558 COR
MTRDMH
METAR KDMH 020554Z AUTO 12/11 A3002 RMK AO1 SLP165 60002 T01220111
10128 20122 55012





000
SAUS41 KLWX 020558 COR
MTRDMH
METAR KDMH 020554Z AUTO 12/11 A3002 RMK AO1 SLP165 60002 T01220111
10128 20122 55012





000
SAUS41 KLWX 020556
MTRNAK
METAR KNAK 020554Z AUTO 13005KT 7SM -RA OVC007 12/12 A3000 RMK AO2
RAB12 SLP161 P0000 60000 T01220122 10128 20122 58008





000
SAUS41 KLWX 020556
MTRNAK
METAR KNAK 020554Z AUTO 13005KT 7SM -RA OVC007 12/12 A3000 RMK AO2
RAB12 SLP161 P0000 60000 T01220122 10128 20122 58008





000
SAUS41 KLWX 020533 COR
MTRRYT
SPECI KRYT 020525Z AUTO 00000KT 1/4SM FG VV002 11/11 A2997 RMK AO2
RAE05 P0000 $





000
SAUS41 KLWX 020532
MTRRYT
SPECI KRYT 020525Z AUTO 00000KT 1/4SM FG VV002 11/11 A2997 RMK AO2
RAE05 P0000 $





000
SAUS41 KLWX 020532 COR
MTRRYT
SPECI KRYT 020525Z AUTO 00000KT 1/4SM FG VV002 11/11 A2997 RMK AO2
RAE05 P0000 $





000
SAUS41 KLWX 020516 COR
MTRRYT
SPECI KRYT 020514Z AUTO 01004KT 3/4SM BR OVC002 11/11 A2998 RMK AO2
RAE05 P0000 $





000
SAUS41 KLWX 020516 COR
MTRRYT
SPECI KRYT 020514Z AUTO 01004KT 3/4SM BR OVC002 11/11 A2998 RMK AO2
RAE05 P0000 $





000
SAUS41 KLWX 020515
MTRRYT
SPECI KRYT 020514Z AUTO 01004KT 3/4SM BR OVC002 11/11 A2998 RMK AO2
RAE05 P0000 $





000
SAUS41 KLWX 020515
MTRRYT
SPECI KRYT 020514Z AUTO 01004KT 3/4SM BR OVC002 11/11 A2998 RMK AO2
RAE05 P0000 $





000
SAUS41 KLWX 020501 COR
MTRRYT
SPECI KRYT 020500Z AUTO 00000KT 2SM -RA BR OVC002 11/11 A2997 RMK
AO2 P0000 $





000
SAUS41 KLWX 020500
MTRRYT
METAR KRYT 020453Z AUTO 02003KT 3/4SM -RA BR VV002 11/11 A2997 RMK
AO2 RAB40 SLP151 P0001 T01110106 401220094 $





000
SAUS41 KLWX 020500
MTRRYT
METAR KRYT 020453Z AUTO 02003KT 3/4SM -RA BR VV002 11/11 A2997 RMK
AO2 RAB40 SLP151 P0001 T01110106 401220094 $





000
SAUS41 KLWX 020458 COR
MTRDMH
METAR KDMH 020454Z AUTO 12/11 A2997 RMK AO1 PRESFR SLP148 P0002
T01220111 401280100





000
SAUS41 KLWX 020456
MTRNAK
METAR KNAK 020454Z AUTO 10005KT 8SM OVC008 12/12 A3001 RMK AO2
RAB0358E51 SLP163 P0000 T01220117 401330106





000
SAUS41 KLWX 020434
MTRRYT
SPECI KRYT 020427Z AUTO 00000KT 3/4SM BR OVC002 11/11 A2999 RMK AO2
$





000
SAUS41 KLWX 020401 COR
MTRRYT
METAR KRYT 020353Z AUTO 00000KT 1 3/4SM BR OVC002 11/11 A3002 RMK
AO2 SLP166 P0001 T01110106 $





000
SAUS41 KLWX 020400
MTRRYT
METAR KRYT 020353Z AUTO 00000KT 1 3/4SM BR OVC002 11/11 A3002 RMK
AO2 SLP166 P0001 T01110106 $





000
SAUS41 KLWX 020358 COR
MTRDMH
METAR KDMH 020354Z AUTO 13/11 A3005 RMK AO1 SLP176 T01280106





000
SAUS41 KLWX 020355
MTRNAK
METAR KNAK 020354Z AUTO 00000KT 8SM OVC006 12/12 A3003 RMK AO2
SLP171 T01220117





000
SAUS41 KLWX 020319 COR
MTRRYT
SPECI KRYT 020317Z AUTO 00000KT 1 1/2SM BR OVC002 11/11 A3003 RMK
AO2 P0001 $





000
SAUS41 KLWX 020311 COR
MTRRYT
SPECI KRYT 020309Z AUTO 00000KT 3/4SM BR VV002 11/11 A3002 RMK AO2
P0001 $





000
SAUS41 KLWX 020309
MTRRYT
SPECI KRYT 020302Z AUTO 00000KT 1/4SM FG VV002 11/11 A3002 RMK AO2 $





000
SAUS41 KLWX 020301 COR
MTRRYT
METAR KRYT 020253Z AUTO 00000KT 1/2SM FG VV002 11/11 A3002 RMK AO2
SLP169 T01110106 53005 $





000
SAUS41 KLWX 020301 COR
MTRRYT
METAR KRYT 020253Z AUTO 00000KT 1/2SM FG VV002 11/11 A3002 RMK AO2
SLP169 T01110106 53005 $





000
SAUS41 KLWX 020300 COR
MTRRYT
METAR KRYT 020253Z AUTO 00000KT 1/2SM FG VV002 11/11 A3002 RMK AO2
SLP169 T01110106 53005 $





000
SAUS41 KLWX 020300 COR
MTRRYT
METAR KRYT 020253Z AUTO 00000KT 1/2SM FG VV002 11/11 A3002 RMK AO2
SLP169 T01110106 53005 $





000
SAUS41 KLWX 020259
MTRRYT
METAR KRYT 020253Z AUTO 00000KT 1/2SM FG VV002 11/11 A3002 RMK AO2
SLP169 T01110106 53005 $





000
SAUS41 KLWX 020258 COR
MTRDMH
METAR KDMH 020254Z AUTO 12/11 A3005 RMK AO1 SLP176 T01220111 51007





000
SAUS41 KLWX 020258 COR
MTRDMH
METAR KDMH 020254Z AUTO 12/11 A3005 RMK AO1 SLP176 T01220111 51007





000
SAUS41 KLWX 020255
MTRNAK
METAR KNAK 020254Z AUTO 04004KT 5SM BR OVC007 12/12 A3003 RMK AO2
SLP169 T01220117 50001





000
SAUS41 KLWX 020245
MTRRYT
SPECI KRYT 020238Z AUTO 00000KT 1/4SM FG VV002 11/11 A3001 RMK AO2 $





000
SAUS41 KLWX 020238
MTRRYT
SPECI KRYT 020231Z AUTO 00000KT 1/2SM FG VV002 11/11 A3001 RMK AO2 $





000
SAUS41 KLWX 020230
MTRRYT
SPECI KRYT 020223Z AUTO 00000KT 1 1/4SM BR OVC002 11/11 A3001 RMK
AO2 $





000
SAUS41 KLWX 020222
MTRRYT
SPECI KRYT 020216Z AUTO 00000KT 3/4SM BR VV002 11/11 A3001 RMK AO2 $





000
SAUS41 KLWX 020201 COR
MTRRYT
METAR KRYT 020153Z AUTO 00000KT 1/4SM FG VV002 11/11 A3001 RMK AO2
SLP165 T01110106 $





000
SAUS41 KLWX 020200 COR
MTRRYT
METAR KRYT 020153Z AUTO 00000KT 1/4SM FG VV002 11/11 A3001 RMK AO2
SLP165 T01110106 $





000
SAUS41 KLWX 020159
MTRRYT
METAR KRYT 020153Z AUTO 00000KT 1/4SM FG VV002 11/11 A3001 RMK AO2
SLP165 T01110106 $





000
SAUS41 KLWX 020158 COR
MTRDMH
METAR KDMH 020154Z AUTO 12/11 A3005 RMK AO1 SLP175 T01220111





000
SAUS41 KLWX 020155
MTRNAK
METAR KNAK 020154Z AUTO 00000KT 3SM BR OVC007 13/12 A3005 RMK AO2
SLP178 T01280122





000
SAUS41 KLWX 020121
MTRRYT
SPECI KRYT 020114Z AUTO 00000KT 3/4SM BR OVC002 11/11 A3001 RMK AO2
$





000
SAUS41 KLWX 020058 COR
MTRDMH
METAR KDMH 020054Z AUTO 12/11 A3005 RMK AO1 SLP177 T01220111





000
SAUS41 KLWX 020058 COR
MTRDMH
METAR KDMH 020054Z AUTO 12/11 A3005 RMK AO1 SLP177 T01220111





000
SAUS41 KLWX 020056
MTRNAK
METAR KNAK 020054Z AUTO 05005KT 3SM BR OVC006 13/12 A3004 RMK AO2
SLP173 T01280122





000
SAUS41 KLWX 020056
MTRNAK
METAR KNAK 020054Z AUTO 05005KT 3SM BR OVC006 13/12 A3004 RMK AO2
SLP173 T01280122





000
SAUS41 KLWX 020055 COR
MTRRYT
METAR KRYT 020053Z AUTO 00000KT 2 1/2SM BR OVC002 11/11 A3001 RMK
AO2 SLP164 T01110106 $





000
SAUS41 KLWX 020055 COR
MTRRYT
METAR KRYT 020053Z AUTO 00000KT 2 1/2SM BR OVC002 11/11 A3001 RMK
AO2 SLP164 T01110106 $





000
SAUS41 KLWX 020054
MTRRYT
METAR KRYT 020053Z AUTO 00000KT 2 1/2SM BR OVC002 11/11 A3001 RMK
AO2 SLP164 T01110106 $





000
SAUS41 KLWX 020047
MTRRYT
SPECI KRYT 020040Z AUTO 00000KT 4SM BR OVC002 11/11 A3000 RMK AO2
PRESFR $





000
SAUS41 KLWX 020034
MTRNAK
SPECI KNAK 020033Z AUTO 09004KT 3SM BR OVC006 13/12 A3004 RMK AO2
T01280122





000
SAUS41 KLWX 020034
MTRNAK
SPECI KNAK 020033Z AUTO 09004KT 3SM BR OVC006 13/12 A3004 RMK AO2
T01280122





000
SAUS41 KLWX 020029
MTRRYT
SPECI KRYT 020021Z AUTO 00000KT 1 1/2SM BR OVC002 11/11 A3003 RMK
AO2 $





000
SAUS41 KLWX 020021
MTRNAK
SPECI KNAK 020020Z AUTO 05003KT 2 1/2SM BR OVC007 13/12 A3004 RMK
AO2 T01280122





000
SAUS41 KLWX 020021
MTRNAK
SPECI KNAK 020020Z AUTO 05003KT 2 1/2SM BR OVC007 13/12 A3004 RMK
AO2 T01280122





000
SAUS41 KLWX 020016
MTRRYT
SPECI KRYT 020009Z AUTO 00000KT 2 1/2SM BR OVC002 11/11 A3003 RMK
AO2 $





000
SAUS41 KLWX 020002 COR
MTRRYT
METAR KRYT 012353Z AUTO 06003KT 1 1/2SM BR OVC002 11/11 A3002 RMK
AO2 SLP168 P0001 60001 T01110106 10122 20111 53009 $





000
SAUS41 KLWX 020001 COR
MTRRYT
METAR KRYT 012353Z AUTO 06003KT 1 1/2SM BR OVC002 11/11 A3002 RMK
AO2 SLP168 P0001 60001 T01110106 10122 20111 53009 $





000
SAUS41 KLWX 020001 COR
MTRRYT
METAR KRYT 012353Z AUTO 06003KT 1 1/2SM BR OVC002 11/11 A3002 RMK
AO2 SLP168 P0001 60001 T01110106 10122 20111 53009 $





000
SAUS41 KLWX 020000
MTRRYT
METAR KRYT 012353Z AUTO 06003KT 1 1/2SM BR OVC002 11/11 A3002 RMK
AO2 SLP168 P0001 60001 T01110106 10122 20111 53009 $





000
SAUS41 KLWX 020000
MTRRYT
METAR KRYT 012353Z AUTO 06003KT 1 1/2SM BR OVC002 11/11 A3002 RMK
AO2 SLP168 P0001 60001 T01110106 10122 20111 53009 $





000
SAUS41 KLWX 012358 COR
MTRDMH
METAR KDMH 012354Z AUTO 13/12 A3003 RMK AO1 SLP169 T01280117 10128
20117 55004





000
SAUS41 KLWX 012358 COR
MTRDMH
METAR KDMH 012354Z AUTO 13/12 A3003 RMK AO1 SLP169 T01280117 10128
20117 55004





000
SAUS41 KLWX 012356
MTRNAK
METAR KNAK 012354Z AUTO 06004KT 4SM BR OVC008 13/12 A3002 RMK AO2
SLP168 60001 T01280122 10133 20122 55001





000
SAUS41 KLWX 012356
MTRNAK
METAR KNAK 012354Z AUTO 06004KT 4SM BR OVC008 13/12 A3002 RMK AO2
SLP168 60001 T01280122 10133 20122 55001





000
SAUS41 KLWX 012334 COR
MTRRYT
SPECI KRYT 012326Z AUTO 07003KT 2 1/2SM BR OVC002 12/11 A3001 RMK
AO2 P0001 $





000
SAUS41 KLWX 012333
MTRRYT
SPECI KRYT 012326Z AUTO 07003KT 2 1/2SM BR OVC002 12/11 A3001 RMK
AO2 P0001 $





000
SAUS41 KLWX 012323
MTRNAK
SPECI KNAK 012322Z AUTO 09005KT 3SM BR OVC007 13/12 A3001 RMK AO2
CIG 006V010 T01280122





    US Dept of Commerce
    National Oceanic and Atmospheric Administration
    National Weather Service
    1325 East West Highway
    Silver Spring, MD 20910
    Page Author: NWS Internet Services Team
Disclaimer
Information Quality
Credits
Glossary
Privacy Policy
Freedom of Information Act (FOIA)
About Us
Career Opportunities